ETH638 HAAB-WSSS
Flight info
| Callsign | ETH638 |
|---|---|
| Flight time | 8h 58m |
| Altitude | 37000 |
| Route | NIDEG2A NIDEG B535 LAKBE UB535 TORBA B535 KRA P751 MIXAN/N0490F390 P751 DAPAB P323 DONSA UL425 TVM/N0484F410 N640 BIKOK M641 MELIN N640 KAT P570 MABIX P756 OKABU M300 SALAX Y340 BATAR A464 ARAMA LELIB3B |
| Aircraft | B788/H-SDE1E2E3FGHIJ2J3J4J5M1RWXY/LB1D1 |
Departure
| Time | 2026-05-07 12:15 |
|---|---|
| Airport | Addis Ababa Bole International Airport (HAAB) |
Arrival
| Time | 2026-05-07 21:13 |
|---|---|
| Airport | Singapore Changi Airport (WSSS) |
| Time | Latitude | Longitude | Altitude | Speed | Heading |
|---|---|---|---|---|---|
| 2026-05-07 11:51 | 8.98321 | 38.79976 | 7626 ft | 0 kts | 343° |
| 2026-05-07 11:52 | 8.98307 | 38.79980 | 7628 ft | 4 kts | 335° |
| 2026-05-07 11:52 | 8.98286 | 38.79995 | 7632 ft | 4 kts | 306° |
| 2026-05-07 11:52 | 8.98277 | 38.80018 | 7626 ft | 4 kts | 262° |
| 2026-05-07 11:53 | 8.98278 | 38.80026 | 7628 ft | 4 kts | 253° |
| 2026-05-07 11:55 | 8.98278 | 38.80025 | 7628 ft | 1 kts | 253° |
| 2026-05-07 11:56 | 8.98274 | 38.80012 | 7626 ft | 3 kts | 253° |
| 2026-05-07 11:56 | 8.98266 | 38.79984 | 7629 ft | 5 kts | 253° |
| 2026-05-07 11:56 | 8.98263 | 38.79975 | 7626 ft | 1 kts | 253° |
| 2026-05-07 11:56 | 8.98261 | 38.79967 | 7626 ft | 1 kts | 253° |
| 2026-05-07 11:57 | 8.98257 | 38.79956 | 7626 ft | 3 kts | 253° |
| 2026-05-07 11:57 | 8.98250 | 38.79930 | 7626 ft | 5 kts | 253° |
| 2026-05-07 11:57 | 8.98238 | 38.79891 | 7626 ft | 7 kts | 253° |
| 2026-05-07 11:57 | 8.98225 | 38.79848 | 7626 ft | 6 kts | 253° |
| 2026-05-07 11:58 | 8.98214 | 38.79810 | 7626 ft | 5 kts | 253° |
| 2026-05-07 11:58 | 8.98203 | 38.79776 | 7626 ft | 5 kts | 253° |
| 2026-05-07 11:58 | 8.98194 | 38.79745 | 7630 ft | 4 kts | 253° |
| 2026-05-07 11:58 | 8.98186 | 38.79719 | 7626 ft | 4 kts | 253° |
| 2026-05-07 11:59 | 8.98179 | 38.79697 | 7626 ft | 3 kts | 252° |
| 2026-05-07 11:59 | 8.98171 | 38.79681 | 7626 ft | 2 kts | 242° |
| 2026-05-07 11:59 | 8.98164 | 38.79673 | 7626 ft | 1 kts | 229° |
| 2026-05-07 11:59 | 8.98161 | 38.79670 | 7626 ft | 0 kts | 227° |
| 2026-05-07 12:00 | 8.98159 | 38.79668 | 7626 ft | 1 kts | 226° |
| 2026-05-07 12:00 | 8.98148 | 38.79657 | 7626 ft | 4 kts | 224° |
| 2026-05-07 12:00 | 8.98124 | 38.79634 | 7626 ft | 6 kts | 226° |
| 2026-05-07 12:00 | 8.98102 | 38.79591 | 7626 ft | 8 kts | 248° |
| 2026-05-07 12:01 | 8.98082 | 38.79531 | 7626 ft | 10 kts | 253° |
| 2026-05-07 12:01 | 8.98063 | 38.79468 | 7626 ft | 9 kts | 253° |
| 2026-05-07 12:01 | 8.98047 | 38.79411 | 7626 ft | 8 kts | 253° |
| 2026-05-07 12:01 | 8.98032 | 38.79358 | 7626 ft | 7 kts | 253° |
| 2026-05-07 12:02 | 8.98018 | 38.79311 | 7626 ft | 7 kts | 253° |
| 2026-05-07 12:02 | 8.98005 | 38.79269 | 7626 ft | 6 kts | 253° |
| 2026-05-07 12:02 | 8.97994 | 38.79230 | 7626 ft | 5 kts | 253° |
| 2026-05-07 12:02 | 8.97984 | 38.79197 | 7626 ft | 5 kts | 253° |
| 2026-05-07 12:03 | 8.97975 | 38.79166 | 7626 ft | 4 kts | 253° |
| 2026-05-07 12:03 | 8.97975 | 38.79165 | 7626 ft | 0 kts | 253° |
| 2026-05-07 12:04 | 8.97972 | 38.79155 | 7626 ft | 3 kts | 253° |
| 2026-05-07 12:05 | 8.97967 | 38.79137 | 7643 ft | 3 kts | 253° |
| 2026-05-07 12:05 | 8.97961 | 38.79117 | 7626 ft | 3 kts | 253° |
| 2026-05-07 12:05 | 8.97954 | 38.79095 | 7626 ft | 3 kts | 253° |
| 2026-05-07 12:05 | 8.97941 | 38.79050 | 7626 ft | 11 kts | 254° |
| 2026-05-07 12:06 | 8.97920 | 38.78976 | 7626 ft | 10 kts | 254° |
| 2026-05-07 12:06 | 8.97901 | 38.78909 | 7626 ft | 9 kts | 254° |
| 2026-05-07 12:06 | 8.97884 | 38.78849 | 7626 ft | 9 kts | 254° |
| 2026-05-07 12:06 | 8.97867 | 38.78791 | 7626 ft | 9 kts | 253° |
| 2026-05-07 12:07 | 8.97830 | 38.78745 | 7626 ft | 8 kts | 199° |
| 2026-05-07 12:07 | 8.97806 | 38.78750 | 7626 ft | 7 kts | 161° |
| 2026-05-07 12:07 | 8.97784 | 38.78758 | 7626 ft | 7 kts | 161° |
| 2026-05-07 12:07 | 8.97759 | 38.78767 | 7626 ft | 8 kts | 161° |
| 2026-05-07 12:08 | 8.97732 | 38.78776 | 7626 ft | 9 kts | 161° |
| 2026-05-07 12:08 | 8.97702 | 38.78786 | 7626 ft | 9 kts | 162° |
| 2026-05-07 12:08 | 8.97669 | 38.78797 | 7626 ft | 10 kts | 162° |
| 2026-05-07 12:08 | 8.97635 | 38.78806 | 7627 ft | 10 kts | 165° |
| 2026-05-07 12:09 | 8.97600 | 38.78810 | 7627 ft | 10 kts | 188° |
| 2026-05-07 12:09 | 8.97570 | 38.78786 | 7629 ft | 14 kts | 227° |
| 2026-05-07 12:09 | 8.97543 | 38.78734 | 7628 ft | 20 kts | 252° |
| 2026-05-07 12:09 | 8.97523 | 38.78665 | 7627 ft | 20 kts | 254° |
| 2026-05-07 12:10 | 8.97505 | 38.78597 | 7627 ft | 20 kts | 255° |
| 2026-05-07 12:10 | 8.97486 | 38.78529 | 7627 ft | 20 kts | 255° |
| 2026-05-07 12:10 | 8.97468 | 38.78464 | 7627 ft | 19 kts | 255° |
| 2026-05-07 12:10 | 8.97456 | 38.78401 | 7627 ft | 17 kts | 271° |
| 2026-05-07 12:11 | 8.97470 | 38.78349 | 7628 ft | 15 kts | 286° |
| 2026-05-07 12:11 | 8.97471 | 38.78302 | 7628 ft | 12 kts | 250° |
| 2026-05-07 12:11 | 8.97447 | 38.78285 | 7628 ft | 5 kts | 198° |
| 2026-05-07 12:11 | 8.97439 | 38.78287 | 7628 ft | 1 kts | 167° |
| 2026-05-07 12:12 | 8.97437 | 38.78289 | 7628 ft | 1 kts | 153° |
| 2026-05-07 12:12 | 8.97436 | 38.78293 | 7628 ft | 2 kts | 133° |
| 2026-05-07 12:12 | 8.97436 | 38.78300 | 7628 ft | 2 kts | 103° |
| 2026-05-07 12:12 | 8.97431 | 38.78324 | 7628 ft | 11 kts | 101° |
| 2026-05-07 12:13 | 8.97434 | 38.78370 | 7627 ft | 14 kts | 78° |
| 2026-05-07 12:13 | 8.97447 | 38.78418 | 7627 ft | 16 kts | 73° |
| 2026-05-07 12:13 | 8.97476 | 38.78518 | 7627 ft | 46 kts | 74° |
| 2026-05-07 12:13 | 8.97538 | 38.78730 | 7628 ft | 80 kts | 73° |
| 2026-05-07 12:14 | 8.97636 | 38.79060 | 7626 ft | 114 kts | 73° |
| 2026-05-07 12:14 | 8.97764 | 38.79497 | 7625 ft | 144 kts | 73° |
| 2026-05-07 12:14 | 8.97924 | 38.80029 | 7631 ft | 171 kts | 73° |
| 2026-05-07 12:14 | 8.98114 | 38.80635 | 7716 ft | 189 kts | 69° |
| 2026-05-07 12:15 | 8.98309 | 38.81275 | 8144 ft | 193 kts | 74° |
| 2026-05-07 12:15 | 8.98488 | 38.81948 | 8491 ft | 204 kts | 77° |
| 2026-05-07 12:15 | 8.98649 | 38.82671 | 8685 ft | 217 kts | 78° |
| 2026-05-07 12:15 | 8.98838 | 38.83434 | 8852 ft | 228 kts | 76° |
| 2026-05-07 12:16 | 8.99050 | 38.84199 | 9409 ft | 223 kts | 74° |
| 2026-05-07 12:16 | 8.99271 | 38.84968 | 9826 ft | 234 kts | 75° |
| 2026-05-07 12:16 | 8.99506 | 38.85784 | 10045 ft | 249 kts | 75° |
| 2026-05-07 12:16 | 8.99747 | 38.86647 | 10237 ft | 263 kts | 75° |
| 2026-05-07 12:17 | 9.00003 | 38.87561 | 10439 ft | 275 kts | 75° |
| 2026-05-07 12:17 | 9.00266 | 38.88516 | 10608 ft | 289 kts | 74° |
| 2026-05-07 12:17 | 9.00546 | 38.89515 | 10809 ft | 302 kts | 75° |
| 2026-05-07 12:17 | 9.00836 | 38.90562 | 10976 ft | 315 kts | 75° |
| 2026-05-07 12:18 | 9.01139 | 38.91647 | 11166 ft | 325 kts | 75° |
| 2026-05-07 12:18 | 9.01444 | 38.92750 | 11651 ft | 325 kts | 74° |
| 2026-05-07 12:18 | 9.01751 | 38.93852 | 12077 ft | 328 kts | 74° |
| 2026-05-07 12:18 | 9.02092 | 38.94960 | 12480 ft | 331 kts | 69° |
| 2026-05-07 12:19 | 9.02572 | 38.96020 | 12944 ft | 332 kts | 62° |
| 2026-05-07 12:19 | 9.03187 | 38.97011 | 13419 ft | 334 kts | 54° |
| 2026-05-07 12:19 | 9.03917 | 38.97931 | 13840 ft | 337 kts | 51° |
| 2026-05-07 12:19 | 9.04677 | 38.98839 | 14250 ft | 340 kts | 50° |
| 2026-05-07 12:20 | 9.05453 | 38.99748 | 14602 ft | 344 kts | 50° |
| 2026-05-07 12:20 | 9.06248 | 39.00658 | 15011 ft | 346 kts | 49° |
| 2026-05-07 12:20 | 9.07051 | 39.01569 | 15412 ft | 347 kts | 49° |
| 2026-05-07 12:20 | 9.07855 | 39.02485 | 15800 ft | 351 kts | 49° |
| 2026-05-07 12:21 | 9.08667 | 39.03417 | 16136 ft | 354 kts | 49° |
| 2026-05-07 12:21 | 9.09470 | 39.04345 | 16521 ft | 356 kts | 50° |
| 2026-05-07 12:21 | 9.10298 | 39.05308 | 16871 ft | 360 kts | 50° |
| 2026-05-07 12:21 | 9.11114 | 39.06258 | 17168 ft | 364 kts | 49° |
| 2026-05-07 12:22 | 9.11949 | 39.07227 | 17550 ft | 367 kts | 49° |
| 2026-05-07 12:22 | 9.12792 | 39.08203 | 17878 ft | 371 kts | 49° |
| 2026-05-07 12:22 | 9.13644 | 39.09186 | 18227 ft | 373 kts | 49° |
| 2026-05-07 12:22 | 9.14504 | 39.10177 | 18524 ft | 376 kts | 49° |
| 2026-05-07 12:23 | 9.15368 | 39.11174 | 18849 ft | 378 kts | 49° |
| 2026-05-07 12:23 | 9.16237 | 39.12179 | 19153 ft | 381 kts | 49° |
| 2026-05-07 12:23 | 9.17112 | 39.13192 | 19473 ft | 383 kts | 49° |
| 2026-05-07 12:23 | 9.17989 | 39.14208 | 19810 ft | 385 kts | 49° |
| 2026-05-07 12:24 | 9.18871 | 39.15230 | 20111 ft | 388 kts | 49° |
| 2026-05-07 12:24 | 9.19762 | 39.16261 | 20410 ft | 390 kts | 49° |
| 2026-05-07 12:24 | 9.20656 | 39.17295 | 20751 ft | 391 kts | 49° |
| 2026-05-07 12:24 | 9.21554 | 39.18334 | 21053 ft | 393 kts | 49° |
| 2026-05-07 12:25 | 9.22459 | 39.19380 | 21336 ft | 396 kts | 49° |
| 2026-05-07 12:25 | 9.23368 | 39.20433 | 21613 ft | 398 kts | 50° |
| 2026-05-07 12:25 | 9.24240 | 39.21526 | 21882 ft | 401 kts | 55° |
| 2026-05-07 12:25 | 9.24986 | 39.22720 | 22178 ft | 402 kts | 60° |
| 2026-05-07 12:26 | 9.25684 | 39.23952 | 22449 ft | 404 kts | 60° |
| 2026-05-07 12:26 | 9.26384 | 39.25188 | 22727 ft | 406 kts | 60° |
| 2026-05-07 12:26 | 9.27660 | 39.27491 | 23250 ft | 410 kts | 61° |
| 2026-05-07 12:26 | 9.28578 | 39.29174 | 23581 ft | 413 kts | 61° |
| 2026-05-07 12:27 | 9.29977 | 39.31726 | 24013 ft | 417 kts | 61° |
| 2026-05-07 12:27 | 9.31401 | 39.34295 | 24482 ft | 420 kts | 61° |
| 2026-05-07 12:27 | 9.32840 | 39.36891 | 24909 ft | 424 kts | 61° |
| 2026-05-07 12:27 | 9.34282 | 39.39506 | 25364 ft | 427 kts | 61° |
| 2026-05-07 12:28 | 9.35734 | 39.42144 | 25764 ft | 431 kts | 61° |
| 2026-05-07 12:28 | 9.37203 | 39.44804 | 26214 ft | 434 kts | 61° |
| 2026-05-07 12:28 | 9.38684 | 39.47486 | 26629 ft | 438 kts | 61° |
| 2026-05-07 12:28 | 9.40174 | 39.50188 | 27045 ft | 441 kts | 61° |
| 2026-05-07 12:29 | 9.41675 | 39.52911 | 27455 ft | 444 kts | 61° |
| 2026-05-07 12:29 | 9.43186 | 39.55652 | 27840 ft | 448 kts | 61° |
| 2026-05-07 12:29 | 9.44711 | 39.58418 | 28217 ft | 451 kts | 61° |
| 2026-05-07 12:29 | 9.46245 | 39.61203 | 28608 ft | 454 kts | 61° |
| 2026-05-07 12:30 | 9.47789 | 39.64006 | 28957 ft | 458 kts | 61° |
| 2026-05-07 12:30 | 9.49345 | 39.66832 | 29308 ft | 461 kts | 62° |
| 2026-05-07 12:30 | 9.50909 | 39.69671 | 29675 ft | 464 kts | 61° |
| 2026-05-07 12:30 | 9.52486 | 39.72536 | 29994 ft | 467 kts | 61° |
| 2026-05-07 12:31 | 9.54072 | 39.75418 | 30268 ft | 470 kts | 61° |
| 2026-05-07 12:31 | 9.55669 | 39.78319 | 30546 ft | 473 kts | 61° |
| 2026-05-07 12:31 | 9.57272 | 39.81234 | 30805 ft | 475 kts | 61° |
| 2026-05-07 12:31 | 9.58886 | 39.84169 | 31072 ft | 478 kts | 61° |
| 2026-05-07 12:32 | 9.60487 | 39.87080 | 31300 ft | 480 kts | 61° |
| 2026-05-07 12:32 | 9.62115 | 39.90041 | 31554 ft | 483 kts | 61° |
| 2026-05-07 12:32 | 9.63753 | 39.93022 | 31789 ft | 485 kts | 61° |
| 2026-05-07 12:32 | 9.65398 | 39.96016 | 32029 ft | 487 kts | 61° |
| 2026-05-07 12:33 | 9.68709 | 40.02044 | 32476 ft | 491 kts | 61° |
| 2026-05-07 12:33 | 9.70371 | 40.05072 | 32713 ft | 493 kts | 61° |
| 2026-05-07 12:33 | 9.72044 | 40.08120 | 32932 ft | 495 kts | 61° |
| 2026-05-07 12:34 | 9.73720 | 40.11176 | 33137 ft | 497 kts | 61° |
| 2026-05-07 12:34 | 9.75399 | 40.14236 | 33365 ft | 498 kts | 61° |
| 2026-05-07 12:34 | 9.77087 | 40.17314 | 33548 ft | 500 kts | 61° |
| 2026-05-07 12:34 | 9.78782 | 40.20405 | 33734 ft | 503 kts | 61° |
| 2026-05-07 12:35 | 9.80483 | 40.23508 | 33922 ft | 504 kts | 61° |
| 2026-05-07 12:35 | 9.82186 | 40.26616 | 34101 ft | 505 kts | 61° |
| 2026-05-07 12:35 | 9.83978 | 40.29676 | 34269 ft | 506 kts | 54° |
| 2026-05-07 12:35 | 9.86013 | 40.32593 | 34403 ft | 508 kts | 54° |
| 2026-05-07 12:36 | 9.88069 | 40.35509 | 34560 ft | 509 kts | 54° |
| 2026-05-07 12:36 | 9.90123 | 40.38432 | 34796 ft | 509 kts | 54° |
| 2026-05-07 12:36 | 9.92166 | 40.41360 | 35019 ft | 508 kts | 54° |
| 2026-05-07 12:36 | 9.94209 | 40.44289 | 35247 ft | 508 kts | 54° |
| 2026-05-07 12:37 | 9.96255 | 40.47211 | 35491 ft | 508 kts | 54° |
| 2026-05-07 12:37 | 9.98294 | 40.50121 | 35734 ft | 507 kts | 54° |
| 2026-05-07 12:37 | 10.00338 | 40.53046 | 35964 ft | 507 kts | 54° |
| 2026-05-07 12:37 | 10.02374 | 40.55963 | 36195 ft | 507 kts | 54° |
| 2026-05-07 12:38 | 10.04414 | 40.58882 | 36421 ft | 507 kts | 54° |
| 2026-05-07 12:38 | 10.06452 | 40.61796 | 36680 ft | 506 kts | 54° |
| 2026-05-07 12:38 | 10.10539 | 40.67650 | 36740 ft | 510 kts | 54° |
| 2026-05-07 12:39 | 10.14624 | 40.73504 | 36739 ft | 507 kts | 54° |
| 2026-05-07 12:39 | 10.18698 | 40.79342 | 36742 ft | 507 kts | 54° |
| 2026-05-07 12:40 | 10.22769 | 40.85182 | 36744 ft | 506 kts | 54° |
| 2026-05-07 12:40 | 10.26809 | 40.90978 | 36745 ft | 507 kts | 54° |
| 2026-05-07 12:41 | 10.30879 | 40.96822 | 36745 ft | 507 kts | 54° |
| 2026-05-07 12:41 | 10.34947 | 41.02666 | 36744 ft | 507 kts | 54° |
| 2026-05-07 12:42 | 10.39014 | 41.08511 | 36745 ft | 507 kts | 54° |
| 2026-05-07 12:42 | 10.43083 | 41.14361 | 36745 ft | 507 kts | 54° |
| 2026-05-07 12:43 | 10.47150 | 41.20213 | 36744 ft | 507 kts | 54° |
| 2026-05-07 12:43 | 10.51214 | 41.26062 | 36741 ft | 506 kts | 54° |
| 2026-05-07 12:44 | 10.55272 | 41.31907 | 36749 ft | 506 kts | 54° |
| 2026-05-07 12:44 | 10.59330 | 41.37755 | 36745 ft | 506 kts | 54° |
| 2026-05-07 12:45 | 10.63058 | 41.43811 | 36754 ft | 506 kts | 60° |
| 2026-05-07 12:45 | 10.66580 | 41.50017 | 36755 ft | 506 kts | 60° |
| 2026-05-07 12:46 | 10.70101 | 41.56212 | 36757 ft | 506 kts | 60° |
| 2026-05-07 12:46 | 10.73617 | 41.62409 | 36754 ft | 506 kts | 60° |
| 2026-05-07 12:47 | 10.77131 | 41.68602 | 36755 ft | 505 kts | 60° |
| 2026-05-07 12:47 | 10.80638 | 41.74787 | 36749 ft | 504 kts | 60° |
| 2026-05-07 12:48 | 10.84137 | 41.80962 | 36751 ft | 504 kts | 60° |
| 2026-05-07 12:48 | 10.87615 | 41.87104 | 36748 ft | 504 kts | 59° |
| 2026-05-07 12:49 | 10.91111 | 41.93281 | 36739 ft | 504 kts | 59° |
| 2026-05-07 12:49 | 10.94611 | 41.99468 | 36743 ft | 504 kts | 59° |
| 2026-05-07 12:50 | 10.98101 | 42.05643 | 36744 ft | 503 kts | 59° |
| 2026-05-07 12:50 | 11.01594 | 42.11824 | 36737 ft | 503 kts | 59° |
| 2026-05-07 12:51 | 11.05077 | 42.18005 | 36743 ft | 503 kts | 60° |
| 2026-05-07 12:51 | 11.08454 | 42.24243 | 36749 ft | 503 kts | 60° |
| 2026-05-07 12:52 | 11.11872 | 42.30457 | 36751 ft | 503 kts | 60° |
| 2026-05-07 12:52 | 11.15271 | 42.36687 | 36758 ft | 503 kts | 60° |
| 2026-05-07 12:53 | 11.18671 | 42.42906 | 36763 ft | 502 kts | 60° |
| 2026-05-07 12:53 | 11.22068 | 42.49122 | 36773 ft | 501 kts | 60° |
| 2026-05-07 12:54 | 11.25451 | 42.55328 | 36777 ft | 501 kts | 60° |
| 2026-05-07 12:54 | 11.28835 | 42.61526 | 36779 ft | 501 kts | 60° |
| 2026-05-07 12:55 | 11.32214 | 42.67731 | 36785 ft | 500 kts | 60° |
| 2026-05-07 12:55 | 11.35593 | 42.73927 | 36786 ft | 500 kts | 60° |
| 2026-05-07 12:56 | 11.38941 | 42.80080 | 36787 ft | 500 kts | 60° |
| 2026-05-07 12:56 | 11.41767 | 42.85271 | 36782 ft | 500 kts | 60° |
| 2026-05-07 12:57 | 11.42328 | 42.86303 | 36785 ft | 500 kts | 60° |
| 2026-05-07 12:57 | 11.45697 | 42.92498 | 36784 ft | 500 kts | 60° |
| 2026-05-07 12:58 | 11.49061 | 42.98690 | 36785 ft | 499 kts | 60° |
| 2026-05-07 12:58 | 11.52425 | 43.04884 | 36780 ft | 499 kts | 60° |
| 2026-05-07 12:59 | 11.55925 | 43.10987 | 36791 ft | 498 kts | 55° |
| 2026-05-07 12:59 | 11.59806 | 43.16847 | 36771 ft | 498 kts | 55° |
| 2026-05-07 13:00 | 11.63676 | 43.22709 | 36771 ft | 498 kts | 55° |
| 2026-05-07 13:00 | 11.67550 | 43.28577 | 36772 ft | 498 kts | 55° |
| 2026-05-07 13:01 | 11.71416 | 43.34437 | 36772 ft | 498 kts | 55° |
| 2026-05-07 13:01 | 11.75280 | 43.40297 | 36770 ft | 498 kts | 56° |
| 2026-05-07 13:02 | 11.79141 | 43.46155 | 36765 ft | 498 kts | 56° |
| 2026-05-07 13:02 | 11.83002 | 43.52018 | 36765 ft | 497 kts | 56° |
| 2026-05-07 13:03 | 11.86853 | 43.57869 | 36766 ft | 497 kts | 56° |
| 2026-05-07 13:03 | 11.90717 | 43.63660 | 36769 ft | 496 kts | 54° |
| 2026-05-07 13:04 | 11.94687 | 43.69465 | 36769 ft | 495 kts | 55° |
| 2026-05-07 13:04 | 11.98552 | 43.75214 | 36767 ft | 494 kts | 55° |
| 2026-05-07 13:05 | 12.02466 | 43.80981 | 36766 ft | 494 kts | 55° |
| 2026-05-07 13:05 | 12.06362 | 43.86757 | 36773 ft | 493 kts | 55° |
| 2026-05-07 13:06 | 12.10261 | 43.92524 | 36772 ft | 494 kts | 55° |
| 2026-05-07 13:06 | 12.14161 | 43.98306 | 36772 ft | 494 kts | 55° |
| 2026-05-07 13:07 | 12.18063 | 44.04089 | 36776 ft | 494 kts | 55° |
| 2026-05-07 13:07 | 12.21914 | 44.09905 | 36778 ft | 494 kts | 56° |
| 2026-05-07 13:08 | 12.25765 | 44.15710 | 36776 ft | 494 kts | 56° |
| 2026-05-07 13:08 | 12.29620 | 44.21525 | 36777 ft | 493 kts | 56° |
| 2026-05-07 13:09 | 12.33464 | 44.27333 | 36781 ft | 493 kts | 56° |
| 2026-05-07 13:09 | 12.37307 | 44.33135 | 36778 ft | 493 kts | 56° |
| 2026-05-07 13:10 | 12.41147 | 44.38943 | 36781 ft | 492 kts | 56° |
| 2026-05-07 13:10 | 12.44984 | 44.44745 | 36781 ft | 492 kts | 56° |
| 2026-05-07 13:11 | 12.48825 | 44.50542 | 36783 ft | 492 kts | 56° |
| 2026-05-07 13:11 | 12.52672 | 44.56334 | 36784 ft | 492 kts | 56° |
| 2026-05-07 13:12 | 12.56483 | 44.62088 | 36780 ft | 492 kts | 56° |
| 2026-05-07 13:12 | 12.60352 | 44.67925 | 36782 ft | 492 kts | 56° |
| 2026-05-07 13:13 | 12.64190 | 44.73723 | 36783 ft | 492 kts | 56° |
| 2026-05-07 13:13 | 12.68026 | 44.79520 | 36785 ft | 492 kts | 56° |
| 2026-05-07 13:14 | 12.71864 | 44.85324 | 36783 ft | 492 kts | 56° |
| 2026-05-07 13:14 | 12.75696 | 44.91123 | 36784 ft | 492 kts | 56° |
| 2026-05-07 13:15 | 12.79531 | 44.96929 | 36783 ft | 492 kts | 56° |
| 2026-05-07 13:15 | 12.83028 | 45.02924 | 36797 ft | 491 kts | 69° |
| 2026-05-07 13:16 | 12.84812 | 45.09691 | 36786 ft | 493 kts | 77° |
| 2026-05-07 13:16 | 12.86081 | 45.15388 | 36786 ft | 493 kts | 77° |
| 2026-05-07 13:17 | 12.87909 | 45.23349 | 36784 ft | 494 kts | 77° |
| 2026-05-07 13:17 | 12.89459 | 45.30198 | 36785 ft | 493 kts | 77° |
| 2026-05-07 13:18 | 12.90765 | 45.35932 | 36787 ft | 493 kts | 77° |
| 2026-05-07 13:18 | 12.92318 | 45.42775 | 36787 ft | 493 kts | 77° |
| 2026-05-07 13:19 | 12.93868 | 45.49615 | 36788 ft | 492 kts | 77° |
| 2026-05-07 13:19 | 12.95405 | 45.56400 | 36787 ft | 492 kts | 77° |
| 2026-05-07 13:20 | 12.96951 | 45.63239 | 36790 ft | 492 kts | 77° |
| 2026-05-07 13:20 | 12.98495 | 45.70072 | 36791 ft | 492 kts | 77° |
| 2026-05-07 13:21 | 13.00078 | 45.76898 | 36791 ft | 492 kts | 77° |
| 2026-05-07 13:21 | 13.01647 | 45.83722 | 36793 ft | 492 kts | 77° |
| 2026-05-07 13:22 | 13.03219 | 45.90550 | 36794 ft | 492 kts | 77° |
| 2026-05-07 13:22 | 13.04790 | 45.97383 | 36792 ft | 492 kts | 77° |
| 2026-05-07 13:23 | 13.06360 | 46.04224 | 36791 ft | 493 kts | 77° |
| 2026-05-07 13:23 | 13.07927 | 46.11061 | 36797 ft | 493 kts | 77° |
| 2026-05-07 13:24 | 13.09495 | 46.17910 | 36794 ft | 493 kts | 77° |
| 2026-05-07 13:24 | 13.11061 | 46.24757 | 36793 ft | 493 kts | 77° |
| 2026-05-07 13:25 | 13.12627 | 46.31615 | 36793 ft | 494 kts | 77° |
| 2026-05-07 13:25 | 13.14190 | 46.38471 | 36795 ft | 494 kts | 77° |
| 2026-05-07 13:26 | 13.15754 | 46.45337 | 36793 ft | 494 kts | 77° |
| 2026-05-07 13:26 | 13.17318 | 46.52210 | 36798 ft | 494 kts | 77° |
| 2026-05-07 13:27 | 13.18878 | 46.59077 | 36796 ft | 495 kts | 77° |
| 2026-05-07 13:27 | 13.20428 | 46.65906 | 36795 ft | 495 kts | 77° |
| 2026-05-07 13:28 | 13.21987 | 46.72789 | 36797 ft | 495 kts | 77° |
| 2026-05-07 13:28 | 13.23545 | 46.79673 | 36796 ft | 495 kts | 77° |
| 2026-05-07 13:29 | 13.25101 | 46.86560 | 36800 ft | 495 kts | 77° |
| 2026-05-07 13:29 | 13.26657 | 46.93452 | 36798 ft | 496 kts | 77° |
| 2026-05-07 13:30 | 13.28210 | 47.00342 | 36800 ft | 496 kts | 77° |
| 2026-05-07 13:30 | 13.29763 | 47.07241 | 36797 ft | 496 kts | 77° |
| 2026-05-07 13:31 | 13.31314 | 47.14140 | 36796 ft | 496 kts | 77° |
| 2026-05-07 13:31 | 13.32864 | 47.21046 | 36796 ft | 496 kts | 77° |
| 2026-05-07 13:32 | 13.34412 | 47.27947 | 36797 ft | 496 kts | 78° |
| 2026-05-07 13:32 | 13.35956 | 47.34843 | 36800 ft | 496 kts | 78° |
| 2026-05-07 13:33 | 13.37501 | 47.41749 | 36798 ft | 496 kts | 78° |
| 2026-05-07 13:33 | 13.39107 | 47.48638 | 36796 ft | 496 kts | 77° |
| 2026-05-07 13:34 | 13.41490 | 47.58976 | 36793 ft | 496 kts | 77° |
| 2026-05-07 13:35 | 13.43090 | 47.65872 | 36790 ft | 496 kts | 77° |
| 2026-05-07 13:35 | 13.44675 | 47.72768 | 36794 ft | 496 kts | 77° |
| 2026-05-07 13:36 | 13.46256 | 47.79624 | 36791 ft | 496 kts | 77° |
| 2026-05-07 13:36 | 13.47851 | 47.86575 | 36792 ft | 496 kts | 78° |
| 2026-05-07 13:37 | 13.49373 | 47.93444 | 36791 ft | 497 kts | 78° |
| 2026-05-07 13:37 | 13.50927 | 48.00360 | 36790 ft | 497 kts | 78° |
| 2026-05-07 13:38 | 13.52468 | 48.07279 | 36792 ft | 497 kts | 78° |
| 2026-05-07 13:38 | 13.54011 | 48.14196 | 36789 ft | 497 kts | 78° |
| 2026-05-07 13:39 | 13.55554 | 48.21122 | 36790 ft | 497 kts | 78° |
| 2026-05-07 13:39 | 13.57095 | 48.28045 | 36791 ft | 497 kts | 77° |
| 2026-05-07 13:40 | 13.58688 | 48.34954 | 36791 ft | 497 kts | 77° |
| 2026-05-07 13:40 | 13.60256 | 48.41871 | 36793 ft | 497 kts | 77° |
| 2026-05-07 13:41 | 13.61831 | 48.48777 | 36796 ft | 497 kts | 77° |
| 2026-05-07 13:41 | 13.63400 | 48.55688 | 36792 ft | 496 kts | 77° |
| 2026-05-07 13:42 | 13.64969 | 48.62600 | 36791 ft | 497 kts | 77° |
| 2026-05-07 13:42 | 13.66536 | 48.69515 | 36792 ft | 496 kts | 77° |
| 2026-05-07 13:43 | 13.68101 | 48.76428 | 36786 ft | 496 kts | 77° |
| 2026-05-07 13:43 | 13.69662 | 48.83339 | 36789 ft | 496 kts | 77° |
| 2026-05-07 13:44 | 13.71224 | 48.90255 | 36789 ft | 496 kts | 77° |
| 2026-05-07 13:44 | 13.72811 | 48.97161 | 36789 ft | 496 kts | 77° |
| 2026-05-07 13:45 | 13.74389 | 49.04066 | 36789 ft | 496 kts | 77° |
| 2026-05-07 13:45 | 13.75968 | 49.10973 | 36797 ft | 496 kts | 77° |
| 2026-05-07 13:46 | 13.77544 | 49.17880 | 36794 ft | 496 kts | 77° |
| 2026-05-07 13:46 | 13.79117 | 49.24788 | 36794 ft | 496 kts | 77° |
| 2026-05-07 13:47 | 13.80689 | 49.31694 | 36790 ft | 496 kts | 77° |
| 2026-05-07 13:47 | 13.82248 | 49.38554 | 36793 ft | 496 kts | 77° |
| 2026-05-07 13:48 | 13.83814 | 49.45455 | 36797 ft | 495 kts | 77° |
| 2026-05-07 13:48 | 13.85379 | 49.52354 | 36795 ft | 495 kts | 77° |
| 2026-05-07 13:49 | 13.86942 | 49.59254 | 36791 ft | 495 kts | 77° |
| 2026-05-07 13:49 | 13.88502 | 49.66151 | 36794 ft | 495 kts | 77° |
| 2026-05-07 13:50 | 13.90060 | 49.73050 | 36797 ft | 495 kts | 77° |
| 2026-05-07 13:50 | 13.91616 | 49.79947 | 36796 ft | 495 kts | 77° |
| 2026-05-07 13:51 | 13.93172 | 49.86855 | 36794 ft | 495 kts | 77° |
| 2026-05-07 13:51 | 13.94726 | 49.93760 | 36796 ft | 495 kts | 77° |
| 2026-05-07 13:52 | 13.96300 | 50.00663 | 36796 ft | 495 kts | 77° |
| 2026-05-07 13:52 | 13.97879 | 50.07563 | 36798 ft | 496 kts | 77° |
| 2026-05-07 13:53 | 13.99452 | 50.14475 | 36798 ft | 496 kts | 77° |
| 2026-05-07 13:53 | 14.01028 | 50.21388 | 36796 ft | 496 kts | 77° |
| 2026-05-07 13:54 | 14.02597 | 50.28296 | 36796 ft | 496 kts | 77° |
| 2026-05-07 13:54 | 14.04168 | 50.35213 | 36799 ft | 496 kts | 77° |
| 2026-05-07 13:55 | 14.05735 | 50.42129 | 36804 ft | 496 kts | 77° |
| 2026-05-07 13:55 | 14.07303 | 50.49052 | 36799 ft | 496 kts | 77° |
| 2026-05-07 13:56 | 14.08867 | 50.55971 | 36799 ft | 496 kts | 77° |
| 2026-05-07 13:56 | 14.10428 | 50.62886 | 36804 ft | 496 kts | 77° |
| 2026-05-07 13:57 | 14.12005 | 50.69805 | 36804 ft | 496 kts | 76° |
| 2026-05-07 13:57 | 14.13630 | 50.76709 | 36807 ft | 496 kts | 77° |
| 2026-05-07 13:58 | 14.15223 | 50.83625 | 36808 ft | 496 kts | 77° |
| 2026-05-07 13:58 | 14.16831 | 50.90535 | 36806 ft | 496 kts | 77° |
| 2026-05-07 13:59 | 14.18428 | 50.97448 | 36805 ft | 496 kts | 77° |
| 2026-05-07 13:59 | 14.20027 | 51.04358 | 36808 ft | 496 kts | 77° |
| 2026-05-07 14:00 | 14.21622 | 51.11272 | 36809 ft | 496 kts | 77° |
| 2026-05-07 14:00 | 14.23216 | 51.18189 | 36810 ft | 496 kts | 77° |
| 2026-05-07 14:01 | 14.24809 | 51.25106 | 36810 ft | 496 kts | 77° |
| 2026-05-07 14:01 | 14.26399 | 51.32025 | 36813 ft | 496 kts | 77° |
| 2026-05-07 14:02 | 14.27976 | 51.38897 | 36811 ft | 496 kts | 77° |
| 2026-05-07 14:02 | 14.29562 | 51.45818 | 36824 ft | 496 kts | 77° |
| 2026-05-07 14:03 | 14.31146 | 51.52737 | 36823 ft | 496 kts | 77° |
| 2026-05-07 14:03 | 14.32730 | 51.59664 | 36821 ft | 496 kts | 77° |
| 2026-05-07 14:04 | 14.34309 | 51.66583 | 36826 ft | 496 kts | 77° |
| 2026-05-07 14:04 | 14.35887 | 51.73507 | 36827 ft | 496 kts | 77° |
| 2026-05-07 14:05 | 14.37462 | 51.80427 | 36824 ft | 495 kts | 77° |
| 2026-05-07 14:05 | 14.39035 | 51.87346 | 36827 ft | 495 kts | 77° |
| 2026-05-07 14:06 | 14.40604 | 51.94259 | 36829 ft | 495 kts | 77° |
| 2026-05-07 14:06 | 14.41907 | 52.00007 | 36827 ft | 495 kts | 77° |
| 2026-05-07 14:07 | 14.43471 | 52.06918 | 36828 ft | 495 kts | 77° |
| 2026-05-07 14:07 | 14.45035 | 52.13835 | 36829 ft | 495 kts | 77° |
| 2026-05-07 14:08 | 14.46596 | 52.20752 | 36828 ft | 495 kts | 77° |
| 2026-05-07 14:08 | 14.48154 | 52.27662 | 36829 ft | 494 kts | 77° |
| 2026-05-07 14:09 | 14.49708 | 52.34569 | 36829 ft | 494 kts | 77° |
| 2026-05-07 14:09 | 14.51262 | 52.41485 | 36832 ft | 495 kts | 77° |
| 2026-05-07 14:10 | 14.52814 | 52.48398 | 36828 ft | 494 kts | 77° |
| 2026-05-07 14:10 | 14.54362 | 52.55306 | 36827 ft | 494 kts | 77° |
| 2026-05-07 14:11 | 14.55908 | 52.62213 | 36832 ft | 494 kts | 77° |
| 2026-05-07 14:11 | 14.57453 | 52.69130 | 36830 ft | 494 kts | 77° |
| 2026-05-07 14:12 | 14.58996 | 52.76042 | 36830 ft | 494 kts | 77° |
| 2026-05-07 14:12 | 14.60535 | 52.82951 | 36832 ft | 494 kts | 77° |
| 2026-05-07 14:13 | 14.62063 | 52.89818 | 36834 ft | 494 kts | 77° |
| 2026-05-07 14:13 | 14.63598 | 52.96727 | 36835 ft | 494 kts | 77° |
| 2026-05-07 14:14 | 14.65130 | 53.03637 | 36836 ft | 494 kts | 77° |
| 2026-05-07 14:14 | 14.66677 | 53.10540 | 36836 ft | 494 kts | 76° |
| 2026-05-07 14:15 | 14.68311 | 53.17431 | 36838 ft | 494 kts | 76° |
| 2026-05-07 14:15 | 14.69895 | 53.24332 | 36838 ft | 494 kts | 77° |
| 2026-05-07 14:16 | 14.71500 | 53.31223 | 36836 ft | 494 kts | 76° |
| 2026-05-07 14:16 | 14.73092 | 53.38119 | 36840 ft | 493 kts | 77° |
| 2026-05-07 14:17 | 14.74686 | 53.45013 | 36837 ft | 493 kts | 77° |
| 2026-05-07 14:17 | 14.76274 | 53.51901 | 36837 ft | 493 kts | 77° |
| 2026-05-07 14:18 | 14.77860 | 53.58785 | 36838 ft | 492 kts | 77° |
| 2026-05-07 14:18 | 14.79441 | 53.65654 | 36839 ft | 492 kts | 77° |
| 2026-05-07 14:19 | 14.81022 | 53.72541 | 36838 ft | 492 kts | 77° |
| 2026-05-07 14:19 | 14.82601 | 53.79421 | 36842 ft | 492 kts | 77° |
| 2026-05-07 14:20 | 14.84176 | 53.86300 | 36842 ft | 492 kts | 77° |
| 2026-05-07 14:20 | 14.85750 | 53.93179 | 36841 ft | 492 kts | 77° |
| 2026-05-07 14:21 | 14.87322 | 54.00064 | 36838 ft | 492 kts | 77° |
| 2026-05-07 14:21 | 14.88893 | 54.06952 | 36841 ft | 492 kts | 77° |
| 2026-05-07 14:22 | 14.90452 | 54.13798 | 36843 ft | 492 kts | 77° |
| 2026-05-07 14:22 | 14.92029 | 54.20734 | 36841 ft | 492 kts | 77° |
| 2026-05-07 14:23 | 14.93594 | 54.27623 | 36846 ft | 492 kts | 77° |
| 2026-05-07 14:23 | 14.95156 | 54.34513 | 36843 ft | 492 kts | 77° |
| 2026-05-07 14:24 | 14.96716 | 54.41405 | 36844 ft | 492 kts | 77° |
| 2026-05-07 14:24 | 14.98263 | 54.48247 | 36842 ft | 492 kts | 77° |
| 2026-05-07 14:25 | 14.99829 | 54.55183 | 36844 ft | 492 kts | 77° |
| 2026-05-07 14:25 | 15.01371 | 54.62025 | 36842 ft | 492 kts | 77° |
| 2026-05-07 14:26 | 15.02921 | 54.68912 | 36844 ft | 492 kts | 77° |
| 2026-05-07 14:26 | 15.04469 | 54.75800 | 36845 ft | 492 kts | 77° |
| 2026-05-07 14:27 | 15.06016 | 54.82694 | 36846 ft | 491 kts | 77° |
| 2026-05-07 14:27 | 15.07558 | 54.89577 | 36846 ft | 492 kts | 77° |
| 2026-05-07 14:28 | 15.09098 | 54.96462 | 36849 ft | 491 kts | 77° |
| 2026-05-07 14:28 | 15.10636 | 55.03348 | 36847 ft | 491 kts | 77° |
| 2026-05-07 14:29 | 15.12171 | 55.10226 | 36847 ft | 490 kts | 77° |
| 2026-05-07 14:29 | 15.13702 | 55.17101 | 36852 ft | 491 kts | 77° |
| 2026-05-07 14:30 | 15.15234 | 55.23986 | 36848 ft | 490 kts | 77° |
| 2026-05-07 14:30 | 15.16761 | 55.30865 | 36848 ft | 490 kts | 77° |
| 2026-05-07 14:31 | 15.18225 | 55.37757 | 36855 ft | 489 kts | 84° |
| 2026-05-07 14:31 | 15.18344 | 55.41265 | 36928 ft | 489 kts | 96° |
| 2026-05-07 14:31 | 15.17850 | 55.44752 | 36986 ft | 492 kts | 101° |
| 2026-05-07 14:32 | 15.16585 | 55.51766 | 37251 ft | 497 kts | 102° |
| 2026-05-07 14:32 | 15.15943 | 55.55233 | 37503 ft | 496 kts | 101° |
| 2026-05-07 14:32 | 15.15308 | 55.58740 | 37768 ft | 496 kts | 101° |
| 2026-05-07 14:32 | 15.14676 | 55.62244 | 38026 ft | 495 kts | 101° |
| 2026-05-07 14:33 | 15.14038 | 55.65735 | 38293 ft | 494 kts | 101° |
| 2026-05-07 14:33 | 15.13397 | 55.69223 | 38528 ft | 493 kts | 101° |
| 2026-05-07 14:33 | 15.12759 | 55.72712 | 38730 ft | 493 kts | 101° |
| 2026-05-07 14:33 | 15.12124 | 55.76195 | 38929 ft | 492 kts | 101° |
| 2026-05-07 14:34 | 15.11487 | 55.79673 | 39144 ft | 491 kts | 101° |
| 2026-05-07 14:34 | 15.10850 | 55.83142 | 39339 ft | 491 kts | 101° |
| 2026-05-07 14:34 | 15.10213 | 55.86612 | 39550 ft | 490 kts | 101° |
| 2026-05-07 14:34 | 15.09578 | 55.90074 | 39744 ft | 490 kts | 101° |
| 2026-05-07 14:35 | 15.08944 | 55.93529 | 39944 ft | 489 kts | 101° |
| 2026-05-07 14:35 | 15.08307 | 55.96986 | 40142 ft | 488 kts | 102° |
| 2026-05-07 14:35 | 15.07673 | 56.00432 | 40335 ft | 487 kts | 101° |
| 2026-05-07 14:35 | 15.07039 | 56.03873 | 40538 ft | 487 kts | 101° |
| 2026-05-07 14:36 | 15.06405 | 56.07309 | 40714 ft | 486 kts | 101° |
| 2026-05-07 14:36 | 15.05770 | 56.10747 | 40866 ft | 487 kts | 102° |
| 2026-05-07 14:36 | 15.05133 | 56.14194 | 40857 ft | 489 kts | 101° |
| 2026-05-07 14:37 | 15.03858 | 56.21089 | 40858 ft | 486 kts | 102° |
| 2026-05-07 14:37 | 15.01953 | 56.31364 | 40860 ft | 485 kts | 102° |
| 2026-05-07 14:38 | 15.00680 | 56.38216 | 40860 ft | 485 kts | 102° |
| 2026-05-07 14:38 | 14.99405 | 56.45063 | 40858 ft | 485 kts | 102° |
| 2026-05-07 14:39 | 14.98128 | 56.51915 | 40860 ft | 485 kts | 102° |
| 2026-05-07 14:39 | 14.96850 | 56.58759 | 40860 ft | 485 kts | 102° |
| 2026-05-07 14:40 | 14.95569 | 56.65604 | 40860 ft | 484 kts | 102° |
| 2026-05-07 14:40 | 14.94288 | 56.72438 | 40860 ft | 484 kts | 102° |
| 2026-05-07 14:41 | 14.93007 | 56.79263 | 40859 ft | 483 kts | 102° |
| 2026-05-07 14:41 | 14.91733 | 56.86039 | 40862 ft | 484 kts | 102° |
| 2026-05-07 14:42 | 14.90443 | 56.92885 | 40863 ft | 486 kts | 102° |
| 2026-05-07 14:42 | 14.89140 | 56.99790 | 40867 ft | 487 kts | 102° |
| 2026-05-07 14:43 | 14.87851 | 57.06610 | 40871 ft | 486 kts | 102° |
| 2026-05-07 14:43 | 14.86555 | 57.13458 | 40869 ft | 485 kts | 102° |
| 2026-05-07 14:44 | 14.85262 | 57.20295 | 40865 ft | 484 kts | 101° |
| 2026-05-07 14:44 | 14.84059 | 57.27132 | 40866 ft | 483 kts | 101° |
| 2026-05-07 14:45 | 14.82823 | 57.33957 | 40867 ft | 484 kts | 101° |
| 2026-05-07 14:45 | 14.81594 | 57.40805 | 40865 ft | 485 kts | 101° |
| 2026-05-07 14:46 | 14.80358 | 57.47657 | 40869 ft | 486 kts | 101° |
| 2026-05-07 14:46 | 14.79117 | 57.54525 | 40873 ft | 487 kts | 101° |
| 2026-05-07 14:47 | 14.77873 | 57.61403 | 40875 ft | 486 kts | 101° |
| 2026-05-07 14:47 | 14.76629 | 57.68263 | 40871 ft | 485 kts | 101° |
| 2026-05-07 14:48 | 14.75389 | 57.75097 | 40866 ft | 483 kts | 101° |
| 2026-05-07 14:48 | 14.74149 | 57.81912 | 40862 ft | 483 kts | 101° |
| 2026-05-07 14:49 | 14.72906 | 57.88735 | 40865 ft | 484 kts | 101° |
| 2026-05-07 14:49 | 14.71658 | 57.95577 | 40868 ft | 485 kts | 101° |
| 2026-05-07 14:50 | 14.70402 | 58.02444 | 40873 ft | 486 kts | 101° |
| 2026-05-07 14:50 | 14.69146 | 58.09303 | 40873 ft | 486 kts | 101° |
| 2026-05-07 14:51 | 14.67891 | 58.16147 | 40875 ft | 485 kts | 101° |
| 2026-05-07 14:51 | 14.66634 | 58.22985 | 40868 ft | 484 kts | 101° |
| 2026-05-07 14:52 | 14.65379 | 58.29803 | 40869 ft | 483 kts | 101° |
| 2026-05-07 14:52 | 14.64123 | 58.36617 | 40867 ft | 482 kts | 101° |
| 2026-05-07 14:53 | 14.62868 | 58.43409 | 40865 ft | 482 kts | 101° |
| 2026-05-07 14:53 | 14.61608 | 58.50221 | 40867 ft | 484 kts | 101° |
| 2026-05-07 14:54 | 14.60352 | 58.57001 | 40875 ft | 485 kts | 101° |
| 2026-05-07 14:54 | 14.59081 | 58.63843 | 40878 ft | 484 kts | 101° |
| 2026-05-07 14:55 | 14.57813 | 58.70663 | 40879 ft | 483 kts | 101° |
| 2026-05-07 14:55 | 14.56546 | 58.77468 | 40874 ft | 482 kts | 101° |
| 2026-05-07 14:56 | 14.55485 | 58.83154 | 40875 ft | 481 kts | 101° |
| 2026-05-07 14:56 | 14.54219 | 58.89934 | 40877 ft | 482 kts | 101° |
| 2026-05-07 14:57 | 14.52946 | 58.96734 | 40874 ft | 483 kts | 101° |
| 2026-05-07 14:57 | 14.51669 | 59.03547 | 40885 ft | 484 kts | 101° |
| 2026-05-07 14:58 | 14.50390 | 59.10358 | 40888 ft | 483 kts | 101° |
| 2026-05-07 14:58 | 14.49111 | 59.17159 | 40884 ft | 482 kts | 101° |
| 2026-05-07 14:59 | 14.47842 | 59.23898 | 40884 ft | 481 kts | 101° |
| 2026-05-07 14:59 | 14.46566 | 59.30661 | 40872 ft | 480 kts | 101° |
| 2026-05-07 15:00 | 14.45286 | 59.37429 | 40876 ft | 481 kts | 102° |
| 2026-05-07 15:00 | 14.44004 | 59.44208 | 40879 ft | 482 kts | 102° |
| 2026-05-07 15:01 | 14.42718 | 59.50987 | 40890 ft | 481 kts | 102° |
| 2026-05-07 15:01 | 14.41432 | 59.57759 | 40878 ft | 481 kts | 102° |
| 2026-05-07 15:02 | 14.40146 | 59.64523 | 40878 ft | 480 kts | 102° |
| 2026-05-07 15:02 | 14.38860 | 59.71272 | 40890 ft | 480 kts | 102° |
| 2026-05-07 15:03 | 14.37570 | 59.78031 | 40886 ft | 481 kts | 102° |
| 2026-05-07 15:03 | 14.36276 | 59.84800 | 40888 ft | 482 kts | 102° |
| 2026-05-07 15:04 | 14.34977 | 59.91588 | 40889 ft | 482 kts | 102° |
| 2026-05-07 15:04 | 14.33682 | 59.98372 | 40894 ft | 481 kts | 99° |
| 2026-05-07 15:05 | 14.33446 | 60.01808 | 40903 ft | 481 kts | 88° |
| 2026-05-07 15:05 | 14.33634 | 60.05253 | 40884 ft | 482 kts | 87° |
| 2026-05-07 15:05 | 14.34051 | 60.12152 | 40894 ft | 482 kts | 87° |
| 2026-05-07 15:06 | 14.34459 | 60.19040 | 40892 ft | 481 kts | 87° |
| 2026-05-07 15:06 | 14.34866 | 60.25920 | 40889 ft | 480 kts | 87° |
| 2026-05-07 15:07 | 14.35271 | 60.32792 | 40887 ft | 480 kts | 87° |
| 2026-05-07 15:07 | 14.35671 | 60.39619 | 40896 ft | 481 kts | 87° |
| 2026-05-07 15:08 | 14.36072 | 60.46496 | 40893 ft | 481 kts | 87° |
| 2026-05-07 15:08 | 14.36471 | 60.53380 | 40897 ft | 481 kts | 87° |
| 2026-05-07 15:09 | 14.36869 | 60.60274 | 40891 ft | 482 kts | 87° |
| 2026-05-07 15:09 | 14.37266 | 60.67183 | 40892 ft | 483 kts | 87° |
| 2026-05-07 15:10 | 14.37661 | 60.74098 | 40890 ft | 483 kts | 87° |
| 2026-05-07 15:10 | 14.38054 | 60.81004 | 40889 ft | 482 kts | 87° |
| 2026-05-07 15:11 | 14.38443 | 60.87890 | 40886 ft | 480 kts | 87° |
| 2026-05-07 15:11 | 14.38830 | 60.94761 | 40886 ft | 480 kts | 87° |
| 2026-05-07 15:12 | 14.39215 | 61.01641 | 40887 ft | 481 kts | 87° |
| 2026-05-07 15:12 | 14.39598 | 61.08527 | 40884 ft | 480 kts | 87° |
| 2026-05-07 15:13 | 14.39979 | 61.15398 | 40884 ft | 480 kts | 87° |
| 2026-05-07 15:13 | 14.40359 | 61.22288 | 40883 ft | 481 kts | 87° |
| 2026-05-07 15:14 | 14.40736 | 61.29181 | 40887 ft | 481 kts | 87° |
| 2026-05-07 15:14 | 14.41112 | 61.36076 | 40883 ft | 481 kts | 87° |
| 2026-05-07 15:15 | 14.41486 | 61.42963 | 40889 ft | 481 kts | 87° |
| 2026-05-07 15:15 | 14.41857 | 61.49842 | 40890 ft | 480 kts | 87° |
| 2026-05-07 15:16 | 14.42226 | 61.56726 | 40889 ft | 481 kts | 88° |
| 2026-05-07 15:16 | 14.42594 | 61.63618 | 40891 ft | 481 kts | 88° |
| 2026-05-07 15:17 | 14.42959 | 61.70510 | 40885 ft | 481 kts | 88° |
| 2026-05-07 15:17 | 14.43323 | 61.77395 | 40886 ft | 480 kts | 88° |
| 2026-05-07 15:18 | 14.43684 | 61.84276 | 40884 ft | 481 kts | 88° |
| 2026-05-07 15:18 | 14.44043 | 61.91159 | 40887 ft | 481 kts | 88° |
| 2026-05-07 15:19 | 14.44400 | 61.98043 | 40880 ft | 480 kts | 88° |
| 2026-05-07 15:19 | 14.44755 | 62.04924 | 40881 ft | 480 kts | 88° |
| 2026-05-07 15:20 | 14.45108 | 62.11812 | 40881 ft | 481 kts | 88° |
| 2026-05-07 15:20 | 14.45459 | 62.18673 | 40883 ft | 482 kts | 88° |
| 2026-05-07 15:21 | 14.45809 | 62.25580 | 40882 ft | 482 kts | 88° |
| 2026-05-07 15:21 | 14.46157 | 62.32483 | 40882 ft | 482 kts | 88° |
| 2026-05-07 15:22 | 14.46503 | 62.39387 | 40887 ft | 482 kts | 88° |
| 2026-05-07 15:22 | 14.46848 | 62.46305 | 40886 ft | 482 kts | 88° |
| 2026-05-07 15:23 | 14.47191 | 62.53218 | 40882 ft | 482 kts | 88° |
| 2026-05-07 15:23 | 14.47531 | 62.60130 | 40890 ft | 482 kts | 88° |
| 2026-05-07 15:24 | 14.47870 | 62.67043 | 40886 ft | 483 kts | 88° |
| 2026-05-07 15:24 | 14.48207 | 62.73969 | 40890 ft | 483 kts | 88° |
| 2026-05-07 15:25 | 14.48541 | 62.80886 | 40887 ft | 482 kts | 88° |
| 2026-05-07 15:25 | 14.48873 | 62.87792 | 40887 ft | 481 kts | 88° |
| 2026-05-07 15:26 | 14.49203 | 62.94689 | 40888 ft | 481 kts | 88° |
| 2026-05-07 15:26 | 14.49530 | 63.01581 | 40885 ft | 481 kts | 88° |
| 2026-05-07 15:27 | 14.49856 | 63.08487 | 40879 ft | 482 kts | 88° |
| 2026-05-07 15:27 | 14.50180 | 63.15396 | 40886 ft | 482 kts | 88° |
| 2026-05-07 15:28 | 14.50503 | 63.22307 | 40885 ft | 482 kts | 88° |
| 2026-05-07 15:28 | 14.50820 | 63.29165 | 40884 ft | 481 kts | 88° |
| 2026-05-07 15:29 | 14.51138 | 63.36063 | 40881 ft | 481 kts | 88° |
| 2026-05-07 15:29 | 14.51453 | 63.42962 | 40882 ft | 481 kts | 88° |
| 2026-05-07 15:30 | 14.51767 | 63.49860 | 40880 ft | 482 kts | 88° |
| 2026-05-07 15:30 | 14.52078 | 63.56764 | 40887 ft | 482 kts | 88° |
| 2026-05-07 15:31 | 14.52388 | 63.63666 | 40883 ft | 481 kts | 88° |
| 2026-05-07 15:31 | 14.52696 | 63.70570 | 40887 ft | 481 kts | 88° |
| 2026-05-07 15:32 | 14.53001 | 63.77467 | 40883 ft | 481 kts | 88° |
| 2026-05-07 15:32 | 14.53304 | 63.84365 | 40883 ft | 481 kts | 88° |
| 2026-05-07 15:33 | 14.53606 | 63.91268 | 40879 ft | 481 kts | 88° |
| 2026-05-07 15:33 | 14.53905 | 63.98165 | 40882 ft | 481 kts | 88° |
| 2026-05-07 15:34 | 14.54203 | 64.05074 | 40877 ft | 482 kts | 88° |
| 2026-05-07 15:34 | 14.54497 | 64.11934 | 40875 ft | 482 kts | 88° |
| 2026-05-07 15:35 | 14.54791 | 64.18841 | 40880 ft | 482 kts | 88° |
| 2026-05-07 15:35 | 14.55082 | 64.25753 | 40881 ft | 482 kts | 88° |
| 2026-05-07 15:36 | 14.55372 | 64.32662 | 40883 ft | 482 kts | 88° |
| 2026-05-07 15:36 | 14.55659 | 64.39572 | 40878 ft | 482 kts | 88° |
| 2026-05-07 15:37 | 14.55945 | 64.46477 | 40878 ft | 482 kts | 88° |
| 2026-05-07 15:37 | 14.56228 | 64.53387 | 40878 ft | 482 kts | 88° |
| 2026-05-07 15:38 | 14.56510 | 64.60292 | 40879 ft | 482 kts | 88° |
| 2026-05-07 15:38 | 14.56789 | 64.67197 | 40884 ft | 481 kts | 88° |
| 2026-05-07 15:39 | 14.57066 | 64.74098 | 40883 ft | 481 kts | 88° |
| 2026-05-07 15:39 | 14.57342 | 64.81005 | 40881 ft | 481 kts | 88° |
| 2026-05-07 15:40 | 14.57614 | 64.87904 | 40878 ft | 481 kts | 88° |
| 2026-05-07 15:40 | 14.57886 | 64.94807 | 40879 ft | 481 kts | 88° |
| 2026-05-07 15:41 | 14.58154 | 65.01705 | 40880 ft | 481 kts | 89° |
| 2026-05-07 15:41 | 14.58421 | 65.08607 | 40878 ft | 481 kts | 89° |
| 2026-05-07 15:42 | 14.58608 | 65.15505 | 40887 ft | 480 kts | 96° |
| 2026-05-07 15:42 | 14.58081 | 65.18894 | 40909 ft | 479 kts | 107° |
| 2026-05-07 15:42 | 14.56934 | 65.22114 | 40926 ft | 478 kts | 117° |
| 2026-05-07 15:43 | 14.53500 | 65.27942 | 40891 ft | 479 kts | 123° |
| 2026-05-07 15:43 | 14.49907 | 65.33729 | 40892 ft | 479 kts | 123° |
| 2026-05-07 15:44 | 14.46313 | 65.39517 | 40886 ft | 479 kts | 123° |
| 2026-05-07 15:44 | 14.42725 | 65.45296 | 40889 ft | 479 kts | 123° |
| 2026-05-07 15:45 | 14.39712 | 65.50140 | 40892 ft | 478 kts | 123° |
| 2026-05-07 15:45 | 14.36121 | 65.55918 | 40891 ft | 478 kts | 123° |
| 2026-05-07 15:46 | 14.30732 | 65.64572 | 40892 ft | 478 kts | 123° |
| 2026-05-07 15:47 | 14.27141 | 65.70337 | 40890 ft | 478 kts | 123° |
| 2026-05-07 15:47 | 14.23569 | 65.76065 | 40892 ft | 478 kts | 123° |
| 2026-05-07 15:48 | 14.19975 | 65.81825 | 40892 ft | 478 kts | 123° |
| 2026-05-07 15:48 | 14.16381 | 65.87583 | 40891 ft | 478 kts | 123° |
| 2026-05-07 15:49 | 14.12779 | 65.93347 | 40892 ft | 478 kts | 123° |
| 2026-05-07 15:49 | 14.09180 | 65.99103 | 40891 ft | 478 kts | 123° |
| 2026-05-07 15:50 | 14.05581 | 66.04856 | 40892 ft | 478 kts | 123° |
| 2026-05-07 15:50 | 14.01982 | 66.10604 | 40891 ft | 478 kts | 123° |
| 2026-05-07 15:51 | 13.98378 | 66.16356 | 40891 ft | 478 kts | 123° |
| 2026-05-07 15:51 | 13.94771 | 66.22109 | 40890 ft | 478 kts | 123° |
| 2026-05-07 15:52 | 13.91161 | 66.27862 | 40891 ft | 478 kts | 123° |
| 2026-05-07 15:52 | 13.87551 | 66.33613 | 40894 ft | 478 kts | 123° |
| 2026-05-07 15:53 | 13.83936 | 66.39365 | 40895 ft | 478 kts | 123° |
| 2026-05-07 15:53 | 13.80345 | 66.45078 | 40895 ft | 479 kts | 123° |
| 2026-05-07 15:54 | 13.76729 | 66.50826 | 40895 ft | 479 kts | 123° |
| 2026-05-07 15:54 | 13.73108 | 66.56577 | 40894 ft | 479 kts | 123° |
| 2026-05-07 15:55 | 13.69487 | 66.62325 | 40893 ft | 479 kts | 123° |
| 2026-05-07 15:55 | 13.65867 | 66.68068 | 40891 ft | 479 kts | 123° |
| 2026-05-07 15:56 | 13.62243 | 66.73813 | 40894 ft | 479 kts | 123° |
| 2026-05-07 15:56 | 13.58618 | 66.79555 | 40895 ft | 479 kts | 123° |
| 2026-05-07 15:57 | 13.54994 | 66.85291 | 40894 ft | 479 kts | 123° |
| 2026-05-07 15:57 | 13.51366 | 66.91032 | 40896 ft | 479 kts | 123° |
| 2026-05-07 15:58 | 13.47738 | 66.96768 | 40896 ft | 479 kts | 123° |
| 2026-05-07 15:58 | 13.44113 | 67.02495 | 40894 ft | 478 kts | 123° |
| 2026-05-07 15:59 | 13.40486 | 67.08223 | 40894 ft | 478 kts | 123° |
| 2026-05-07 15:59 | 13.36857 | 67.13948 | 40893 ft | 478 kts | 123° |
| 2026-05-07 16:00 | 13.33230 | 67.19668 | 40894 ft | 478 kts | 123° |
| 2026-05-07 16:00 | 13.29602 | 67.25385 | 40889 ft | 478 kts | 123° |
| 2026-05-07 16:01 | 13.25974 | 67.31097 | 40894 ft | 477 kts | 123° |
| 2026-05-07 16:01 | 13.22347 | 67.36806 | 40896 ft | 477 kts | 123° |
| 2026-05-07 16:02 | 13.18724 | 67.42503 | 40897 ft | 477 kts | 123° |
| 2026-05-07 16:02 | 13.15101 | 67.48197 | 40887 ft | 476 kts | 123° |
| 2026-05-07 16:03 | 13.11481 | 67.53884 | 40888 ft | 476 kts | 123° |
| 2026-05-07 16:03 | 13.07861 | 67.59566 | 40889 ft | 476 kts | 123° |
| 2026-05-07 16:04 | 13.04262 | 67.65213 | 40888 ft | 476 kts | 123° |
| 2026-05-07 16:04 | 13.00639 | 67.70892 | 40892 ft | 476 kts | 123° |
| 2026-05-07 16:05 | 12.97015 | 67.76571 | 40891 ft | 476 kts | 123° |
| 2026-05-07 16:05 | 12.93389 | 67.82248 | 40892 ft | 476 kts | 123° |
| 2026-05-07 16:06 | 12.89761 | 67.87924 | 40887 ft | 476 kts | 123° |
| 2026-05-07 16:06 | 12.86134 | 67.93597 | 40886 ft | 476 kts | 123° |
| 2026-05-07 16:07 | 12.82507 | 67.99266 | 40888 ft | 476 kts | 123° |
| 2026-05-07 16:07 | 12.78886 | 68.04939 | 40888 ft | 475 kts | 123° |
| 2026-05-07 16:08 | 12.75298 | 68.10621 | 40887 ft | 475 kts | 123° |
| 2026-05-07 16:08 | 12.71695 | 68.16288 | 40886 ft | 475 kts | 123° |
| 2026-05-07 16:09 | 12.68102 | 68.21954 | 40883 ft | 474 kts | 123° |
| 2026-05-07 16:09 | 12.64504 | 68.27615 | 40887 ft | 474 kts | 123° |
| 2026-05-07 16:10 | 12.60904 | 68.33280 | 40887 ft | 475 kts | 123° |
| 2026-05-07 16:10 | 12.57300 | 68.38945 | 40886 ft | 475 kts | 123° |
| 2026-05-07 16:11 | 12.53696 | 68.44610 | 40887 ft | 475 kts | 123° |
| 2026-05-07 16:11 | 12.50089 | 68.50274 | 40886 ft | 475 kts | 123° |
| 2026-05-07 16:12 | 12.46482 | 68.55935 | 40886 ft | 475 kts | 123° |
| 2026-05-07 16:12 | 12.42872 | 68.61597 | 40883 ft | 474 kts | 123° |
| 2026-05-07 16:13 | 12.39268 | 68.67247 | 40883 ft | 475 kts | 123° |
| 2026-05-07 16:13 | 12.35657 | 68.72903 | 40884 ft | 475 kts | 123° |
| 2026-05-07 16:14 | 12.32043 | 68.78561 | 40887 ft | 475 kts | 123° |
| 2026-05-07 16:14 | 12.28429 | 68.84217 | 40883 ft | 475 kts | 123° |
| 2026-05-07 16:15 | 12.24805 | 68.89884 | 40882 ft | 476 kts | 123° |
| 2026-05-07 16:15 | 12.21182 | 68.95545 | 40885 ft | 476 kts | 123° |
| 2026-05-07 16:16 | 12.17559 | 69.01205 | 40882 ft | 476 kts | 123° |
| 2026-05-07 16:16 | 12.13952 | 69.06871 | 40882 ft | 476 kts | 123° |
| 2026-05-07 16:17 | 12.10335 | 69.12538 | 40880 ft | 476 kts | 123° |
| 2026-05-07 16:17 | 12.06747 | 69.18161 | 40880 ft | 475 kts | 123° |
| 2026-05-07 16:18 | 12.03134 | 69.23818 | 40876 ft | 475 kts | 123° |
| 2026-05-07 16:18 | 11.99519 | 69.29476 | 40873 ft | 476 kts | 123° |
| 2026-05-07 16:19 | 11.95905 | 69.35128 | 40876 ft | 475 kts | 123° |
| 2026-05-07 16:19 | 11.92290 | 69.40779 | 40874 ft | 476 kts | 123° |
| 2026-05-07 16:20 | 11.88672 | 69.46431 | 40872 ft | 476 kts | 123° |
| 2026-05-07 16:20 | 11.85054 | 69.52080 | 40870 ft | 474 kts | 123° |
| 2026-05-07 16:21 | 11.81449 | 69.57704 | 40869 ft | 473 kts | 123° |
| 2026-05-07 16:21 | 11.77848 | 69.63321 | 40870 ft | 473 kts | 123° |
| 2026-05-07 16:22 | 11.74247 | 69.68934 | 40869 ft | 472 kts | 123° |
| 2026-05-07 16:22 | 11.70648 | 69.74541 | 40867 ft | 473 kts | 123° |
| 2026-05-07 16:23 | 11.67045 | 69.80149 | 40870 ft | 473 kts | 123° |
| 2026-05-07 16:23 | 11.63442 | 69.85756 | 40867 ft | 473 kts | 123° |
| 2026-05-07 16:24 | 11.59832 | 69.91358 | 40865 ft | 473 kts | 123° |
| 2026-05-07 16:24 | 11.56197 | 69.96950 | 40867 ft | 473 kts | 123° |
| 2026-05-07 16:25 | 11.52576 | 70.02542 | 40869 ft | 473 kts | 123° |
| 2026-05-07 16:25 | 11.48946 | 70.08131 | 40868 ft | 472 kts | 123° |
| 2026-05-07 16:26 | 11.45320 | 70.13719 | 40866 ft | 472 kts | 123° |
| 2026-05-07 16:26 | 11.41693 | 70.19301 | 40866 ft | 472 kts | 123° |
| 2026-05-07 16:27 | 11.38064 | 70.24885 | 40869 ft | 473 kts | 123° |
| 2026-05-07 16:27 | 11.34459 | 70.30429 | 40872 ft | 472 kts | 123° |
| 2026-05-07 16:28 | 11.30831 | 70.36005 | 40870 ft | 472 kts | 123° |
| 2026-05-07 16:28 | 11.27201 | 70.41580 | 40870 ft | 472 kts | 123° |
| 2026-05-07 16:29 | 11.23575 | 70.47147 | 40868 ft | 472 kts | 123° |
| 2026-05-07 16:29 | 11.19946 | 70.52715 | 40871 ft | 472 kts | 123° |
| 2026-05-07 16:30 | 11.16316 | 70.58283 | 40866 ft | 472 kts | 123° |
| 2026-05-07 16:30 | 11.12684 | 70.63850 | 40868 ft | 472 kts | 123° |
| 2026-05-07 16:31 | 11.09055 | 70.69409 | 40871 ft | 472 kts | 123° |
| 2026-05-07 16:31 | 11.05424 | 70.74969 | 40867 ft | 472 kts | 123° |
| 2026-05-07 16:32 | 11.01790 | 70.80530 | 40866 ft | 472 kts | 123° |
| 2026-05-07 16:32 | 10.98154 | 70.86091 | 40865 ft | 472 kts | 123° |
| 2026-05-07 16:33 | 10.94518 | 70.91650 | 40865 ft | 472 kts | 123° |
| 2026-05-07 16:33 | 10.91494 | 70.96271 | 40868 ft | 472 kts | 123° |
| 2026-05-07 16:34 | 10.87855 | 71.01828 | 40871 ft | 472 kts | 123° |
| 2026-05-07 16:34 | 10.84215 | 71.07386 | 40868 ft | 472 kts | 123° |
| 2026-05-07 16:35 | 10.80577 | 71.12936 | 40860 ft | 472 kts | 123° |
| 2026-05-07 16:35 | 10.76931 | 71.18495 | 40863 ft | 472 kts | 123° |
| 2026-05-07 16:36 | 10.73284 | 71.24053 | 40868 ft | 472 kts | 123° |
| 2026-05-07 16:36 | 10.69633 | 71.29615 | 40854 ft | 475 kts | 123° |
| 2026-05-07 16:37 | 10.65961 | 71.35207 | 40852 ft | 475 kts | 122° |
| 2026-05-07 16:37 | 10.62298 | 71.40781 | 40855 ft | 474 kts | 122° |
| 2026-05-07 16:38 | 10.58660 | 71.46315 | 40849 ft | 474 kts | 122° |
| 2026-05-07 16:38 | 10.54998 | 71.51882 | 40852 ft | 474 kts | 122° |
| 2026-05-07 16:39 | 10.51334 | 71.57449 | 40852 ft | 474 kts | 122° |
| 2026-05-07 16:39 | 10.47667 | 71.63017 | 40854 ft | 474 kts | 122° |
| 2026-05-07 16:40 | 10.44000 | 71.68586 | 40854 ft | 474 kts | 122° |
| 2026-05-07 16:40 | 10.40334 | 71.74146 | 40855 ft | 473 kts | 123° |
| 2026-05-07 16:41 | 10.36674 | 71.79698 | 40855 ft | 473 kts | 123° |
| 2026-05-07 16:41 | 10.33013 | 71.85246 | 40853 ft | 473 kts | 123° |
| 2026-05-07 16:42 | 10.29356 | 71.90787 | 40852 ft | 472 kts | 123° |
| 2026-05-07 16:42 | 10.25698 | 71.96325 | 40854 ft | 472 kts | 123° |
| 2026-05-07 16:43 | 10.22046 | 72.01854 | 40852 ft | 471 kts | 123° |
| 2026-05-07 16:43 | 10.18393 | 72.07378 | 40854 ft | 471 kts | 123° |
| 2026-05-07 16:44 | 10.14739 | 72.12905 | 40850 ft | 472 kts | 123° |
| 2026-05-07 16:44 | 10.11079 | 72.18436 | 40851 ft | 473 kts | 123° |
| 2026-05-07 16:45 | 10.07409 | 72.23980 | 40849 ft | 473 kts | 123° |
| 2026-05-07 16:45 | 10.03762 | 72.29486 | 40851 ft | 474 kts | 123° |
| 2026-05-07 16:46 | 10.00081 | 72.35042 | 40852 ft | 474 kts | 123° |
| 2026-05-07 16:46 | 9.96659 | 72.40734 | 40882 ft | 472 kts | 112° |
| 2026-05-07 16:47 | 9.94510 | 72.47042 | 40858 ft | 474 kts | 108° |
| 2026-05-07 16:47 | 9.92431 | 72.53390 | 40860 ft | 475 kts | 108° |
| 2026-05-07 16:48 | 9.90352 | 72.59744 | 40865 ft | 475 kts | 108° |
| 2026-05-07 16:48 | 9.88267 | 72.66102 | 40863 ft | 475 kts | 108° |
| 2026-05-07 16:49 | 9.86183 | 72.72459 | 40865 ft | 475 kts | 108° |
| 2026-05-07 16:49 | 9.84095 | 72.78818 | 40864 ft | 475 kts | 108° |
| 2026-05-07 16:50 | 9.82008 | 72.85174 | 40864 ft | 475 kts | 108° |
| 2026-05-07 16:50 | 9.79918 | 72.91531 | 40865 ft | 475 kts | 108° |
| 2026-05-07 16:51 | 9.77831 | 72.97878 | 40865 ft | 474 kts | 108° |
| 2026-05-07 16:51 | 9.75743 | 73.04222 | 40863 ft | 474 kts | 108° |
| 2026-05-07 16:52 | 9.73655 | 73.10562 | 40865 ft | 474 kts | 108° |
| 2026-05-07 16:52 | 9.71567 | 73.16897 | 40862 ft | 474 kts | 108° |
| 2026-05-07 16:53 | 9.69496 | 73.23176 | 40861 ft | 472 kts | 108° |
| 2026-05-07 16:53 | 9.67415 | 73.29484 | 40862 ft | 471 kts | 108° |
| 2026-05-07 16:54 | 9.65336 | 73.35778 | 40861 ft | 471 kts | 108° |
| 2026-05-07 16:54 | 9.63253 | 73.42081 | 40861 ft | 472 kts | 108° |
| 2026-05-07 16:55 | 9.61167 | 73.48391 | 40861 ft | 472 kts | 108° |
| 2026-05-07 16:55 | 9.59080 | 73.54697 | 40858 ft | 472 kts | 108° |
| 2026-05-07 16:56 | 9.56995 | 73.60993 | 40859 ft | 471 kts | 108° |
| 2026-05-07 16:56 | 9.53868 | 73.70430 | 40857 ft | 471 kts | 108° |
| 2026-05-07 16:57 | 9.51780 | 73.76725 | 40859 ft | 471 kts | 108° |
| 2026-05-07 16:57 | 9.49697 | 73.83001 | 40856 ft | 470 kts | 108° |
| 2026-05-07 16:58 | 9.47612 | 73.89278 | 40856 ft | 470 kts | 108° |
| 2026-05-07 16:58 | 9.45538 | 73.95520 | 40859 ft | 471 kts | 108° |
| 2026-05-07 16:59 | 9.43446 | 74.01810 | 40863 ft | 471 kts | 108° |
| 2026-05-07 16:59 | 9.41355 | 74.08094 | 40856 ft | 470 kts | 108° |
| 2026-05-07 17:00 | 9.39295 | 74.14375 | 40855 ft | 470 kts | 107° |
| 2026-05-07 17:00 | 9.37262 | 74.20650 | 40855 ft | 469 kts | 108° |
| 2026-05-07 17:01 | 9.35206 | 74.26936 | 40855 ft | 471 kts | 107° |
| 2026-05-07 17:01 | 9.33155 | 74.33238 | 40854 ft | 471 kts | 108° |
| 2026-05-07 17:02 | 9.31096 | 74.39539 | 40853 ft | 471 kts | 107° |
| 2026-05-07 17:02 | 9.29041 | 74.45835 | 40850 ft | 471 kts | 108° |
| 2026-05-07 17:03 | 9.26987 | 74.52116 | 40845 ft | 470 kts | 108° |
| 2026-05-07 17:03 | 9.24931 | 74.58405 | 40849 ft | 470 kts | 108° |
| 2026-05-07 17:04 | 9.22875 | 74.64688 | 40844 ft | 470 kts | 108° |
| 2026-05-07 17:04 | 9.20816 | 74.70976 | 40849 ft | 471 kts | 108° |
| 2026-05-07 17:05 | 9.18757 | 74.77261 | 40846 ft | 470 kts | 108° |
| 2026-05-07 17:05 | 9.16700 | 74.83535 | 40844 ft | 469 kts | 108° |
| 2026-05-07 17:06 | 9.14646 | 74.89797 | 40846 ft | 469 kts | 108° |
| 2026-05-07 17:06 | 9.12586 | 74.96071 | 40846 ft | 470 kts | 108° |
| 2026-05-07 17:07 | 9.10527 | 75.02338 | 40846 ft | 469 kts | 108° |
| 2026-05-07 17:07 | 9.08486 | 75.08547 | 40844 ft | 468 kts | 108° |
| 2026-05-07 17:08 | 9.06432 | 75.14794 | 40847 ft | 468 kts | 108° |
| 2026-05-07 17:08 | 9.04373 | 75.21048 | 40843 ft | 469 kts | 108° |
| 2026-05-07 17:09 | 9.02314 | 75.27303 | 40847 ft | 468 kts | 108° |
| 2026-05-07 17:09 | 9.00255 | 75.33551 | 40841 ft | 468 kts | 108° |
| 2026-05-07 17:10 | 8.98197 | 75.39792 | 40840 ft | 468 kts | 108° |
| 2026-05-07 17:10 | 8.96134 | 75.46044 | 40842 ft | 468 kts | 108° |
| 2026-05-07 17:11 | 8.94074 | 75.52283 | 40844 ft | 468 kts | 108° |
| 2026-05-07 17:11 | 8.92013 | 75.58521 | 40843 ft | 468 kts | 108° |
| 2026-05-07 17:12 | 8.89962 | 75.64728 | 40842 ft | 468 kts | 108° |
| 2026-05-07 17:12 | 8.87897 | 75.70970 | 40840 ft | 468 kts | 108° |
| 2026-05-07 17:13 | 8.85816 | 75.77259 | 40840 ft | 469 kts | 108° |
| 2026-05-07 17:13 | 8.83745 | 75.83512 | 40844 ft | 469 kts | 108° |
| 2026-05-07 17:14 | 8.81674 | 75.89762 | 40843 ft | 469 kts | 108° |
| 2026-05-07 17:14 | 8.79615 | 75.95971 | 40839 ft | 469 kts | 108° |
| 2026-05-07 17:15 | 8.77540 | 76.02227 | 40841 ft | 469 kts | 108° |
| 2026-05-07 17:15 | 8.75462 | 76.08484 | 40842 ft | 470 kts | 108° |
| 2026-05-07 17:16 | 8.73381 | 76.14751 | 40837 ft | 470 kts | 108° |
| 2026-05-07 17:16 | 8.71297 | 76.21020 | 40836 ft | 470 kts | 108° |
| 2026-05-07 17:17 | 8.69213 | 76.27286 | 40836 ft | 471 kts | 108° |
| 2026-05-07 17:17 | 8.67123 | 76.33565 | 40833 ft | 471 kts | 108° |
| 2026-05-07 17:18 | 8.65038 | 76.39830 | 40835 ft | 470 kts | 108° |
| 2026-05-07 17:18 | 8.62950 | 76.46094 | 40831 ft | 470 kts | 108° |
| 2026-05-07 17:19 | 8.60864 | 76.52351 | 40830 ft | 469 kts | 108° |
| 2026-05-07 17:19 | 8.58787 | 76.58580 | 40833 ft | 467 kts | 108° |
| 2026-05-07 17:20 | 8.56711 | 76.64799 | 40835 ft | 467 kts | 108° |
| 2026-05-07 17:20 | 8.54632 | 76.71023 | 40840 ft | 468 kts | 108° |
| 2026-05-07 17:21 | 8.52549 | 76.77257 | 40847 ft | 468 kts | 108° |
| 2026-05-07 17:21 | 8.50465 | 76.83489 | 40854 ft | 469 kts | 108° |
| 2026-05-07 17:22 | 8.48377 | 76.89730 | 40854 ft | 469 kts | 108° |
| 2026-05-07 17:22 | 8.47059 | 76.96132 | 40871 ft | 466 kts | 96° |
| 2026-05-07 17:23 | 8.46334 | 77.02645 | 40865 ft | 466 kts | 96° |
| 2026-05-07 17:23 | 8.45615 | 77.09111 | 40861 ft | 466 kts | 96° |
| 2026-05-07 17:24 | 8.44888 | 77.15606 | 40861 ft | 466 kts | 96° |
| 2026-05-07 17:24 | 8.44161 | 77.22113 | 40860 ft | 466 kts | 96° |
| 2026-05-07 17:25 | 8.43432 | 77.28618 | 40860 ft | 466 kts | 96° |
| 2026-05-07 17:25 | 8.42703 | 77.35118 | 40857 ft | 466 kts | 96° |
| 2026-05-07 17:26 | 8.42095 | 77.40533 | 40858 ft | 467 kts | 96° |
| 2026-05-07 17:26 | 8.41361 | 77.47054 | 40858 ft | 468 kts | 96° |
| 2026-05-07 17:27 | 8.40626 | 77.53583 | 40858 ft | 468 kts | 96° |
| 2026-05-07 17:27 | 8.39771 | 77.61158 | 40853 ft | 467 kts | 96° |
| 2026-05-07 17:28 | 8.39154 | 77.66615 | 40854 ft | 467 kts | 96° |
| 2026-05-07 17:28 | 8.38418 | 77.73122 | 40848 ft | 466 kts | 96° |
| 2026-05-07 17:29 | 8.37681 | 77.79626 | 40839 ft | 466 kts | 96° |
| 2026-05-07 17:29 | 8.36943 | 77.86130 | 40840 ft | 466 kts | 96° |
| 2026-05-07 17:30 | 8.36209 | 77.92588 | 40840 ft | 466 kts | 96° |
| 2026-05-07 17:30 | 8.35464 | 77.99132 | 40836 ft | 466 kts | 96° |
| 2026-05-07 17:31 | 8.34728 | 78.05588 | 40837 ft | 466 kts | 96° |
| 2026-05-07 17:31 | 8.33985 | 78.12090 | 40835 ft | 466 kts | 96° |
| 2026-05-07 17:32 | 8.33241 | 78.18599 | 40840 ft | 467 kts | 96° |
| 2026-05-07 17:32 | 8.32494 | 78.25122 | 40842 ft | 468 kts | 96° |
| 2026-05-07 17:33 | 8.31746 | 78.31649 | 40841 ft | 467 kts | 96° |
| 2026-05-07 17:33 | 8.30999 | 78.38154 | 40836 ft | 466 kts | 96° |
| 2026-05-07 17:34 | 8.30251 | 78.44654 | 40836 ft | 467 kts | 96° |
| 2026-05-07 17:34 | 8.29502 | 78.51163 | 40838 ft | 467 kts | 96° |
| 2026-05-07 17:35 | 8.28405 | 78.57615 | 40853 ft | 468 kts | 108° |
| 2026-05-07 17:35 | 8.27120 | 78.60639 | 40849 ft | 471 kts | 119° |
| 2026-05-07 17:35 | 8.25302 | 78.63389 | 40866 ft | 473 kts | 129° |
| 2026-05-07 17:36 | 8.20952 | 78.68378 | 40853 ft | 474 kts | 131° |
| 2026-05-07 17:36 | 8.16530 | 78.73311 | 40851 ft | 474 kts | 130° |
| 2026-05-07 17:37 | 8.12135 | 78.78275 | 40852 ft | 475 kts | 130° |
| 2026-05-07 17:37 | 8.07719 | 78.83227 | 40852 ft | 474 kts | 130° |
| 2026-05-07 17:38 | 8.03310 | 78.88186 | 40850 ft | 475 kts | 130° |
| 2026-05-07 17:38 | 7.98922 | 78.93113 | 40850 ft | 475 kts | 130° |
| 2026-05-07 17:39 | 7.94510 | 78.98068 | 40849 ft | 475 kts | 131° |
| 2026-05-07 17:39 | 7.90100 | 79.03018 | 40848 ft | 474 kts | 131° |
| 2026-05-07 17:40 | 7.85694 | 79.07961 | 40847 ft | 473 kts | 131° |
| 2026-05-07 17:40 | 7.81289 | 79.12902 | 40846 ft | 474 kts | 131° |
| 2026-05-07 17:41 | 7.76877 | 79.17849 | 40846 ft | 475 kts | 131° |
| 2026-05-07 17:41 | 7.72461 | 79.22800 | 40849 ft | 474 kts | 131° |
| 2026-05-07 17:42 | 7.68072 | 79.27760 | 40845 ft | 474 kts | 130° |
| 2026-05-07 17:42 | 7.63718 | 79.32747 | 40842 ft | 475 kts | 130° |
| 2026-05-07 17:43 | 7.59323 | 79.37736 | 40847 ft | 476 kts | 130° |
| 2026-05-07 17:43 | 7.54935 | 79.42740 | 40843 ft | 477 kts | 130° |
| 2026-05-07 17:44 | 7.50533 | 79.47745 | 40843 ft | 477 kts | 130° |
| 2026-05-07 17:44 | 7.46142 | 79.52743 | 40843 ft | 476 kts | 130° |
| 2026-05-07 17:45 | 7.41786 | 79.57695 | 40840 ft | 475 kts | 130° |
| 2026-05-07 17:45 | 7.37406 | 79.62676 | 40843 ft | 475 kts | 130° |
| 2026-05-07 17:46 | 7.33018 | 79.67663 | 40850 ft | 476 kts | 130° |
| 2026-05-07 17:46 | 7.28618 | 79.72663 | 40858 ft | 477 kts | 130° |
| 2026-05-07 17:47 | 7.24214 | 79.77664 | 40864 ft | 477 kts | 130° |
| 2026-05-07 17:47 | 7.19811 | 79.82664 | 40868 ft | 477 kts | 130° |
| 2026-05-07 17:48 | 7.16098 | 79.88135 | 40887 ft | 474 kts | 112° |
| 2026-05-07 17:48 | 7.14223 | 79.94484 | 40869 ft | 473 kts | 103° |
| 2026-05-07 17:49 | 7.12649 | 80.00918 | 40860 ft | 474 kts | 103° |
| 2026-05-07 17:49 | 7.11046 | 80.07360 | 40862 ft | 474 kts | 103° |
| 2026-05-07 17:50 | 7.09453 | 80.13799 | 40862 ft | 474 kts | 103° |
| 2026-05-07 17:50 | 7.07856 | 80.20239 | 40864 ft | 474 kts | 103° |
| 2026-05-07 17:51 | 7.06260 | 80.26669 | 40868 ft | 473 kts | 103° |
| 2026-05-07 17:51 | 7.04664 | 80.33101 | 40878 ft | 474 kts | 103° |
| 2026-05-07 17:52 | 7.03066 | 80.39535 | 40888 ft | 474 kts | 103° |
| 2026-05-07 17:52 | 7.01466 | 80.45971 | 40895 ft | 474 kts | 103° |
| 2026-05-07 17:53 | 6.99866 | 80.52403 | 40905 ft | 473 kts | 103° |
| 2026-05-07 17:53 | 6.98268 | 80.58825 | 40909 ft | 473 kts | 104° |
| 2026-05-07 17:54 | 6.96669 | 80.65246 | 40915 ft | 473 kts | 104° |
| 2026-05-07 17:54 | 6.95069 | 80.71669 | 40917 ft | 473 kts | 104° |
| 2026-05-07 17:55 | 6.93466 | 80.78099 | 40923 ft | 474 kts | 104° |
| 2026-05-07 17:55 | 6.91862 | 80.84526 | 40915 ft | 474 kts | 104° |
| 2026-05-07 17:56 | 6.90258 | 80.90951 | 40913 ft | 472 kts | 104° |
| 2026-05-07 17:56 | 6.88660 | 80.97349 | 40906 ft | 470 kts | 104° |
| 2026-05-07 17:57 | 6.87335 | 81.02651 | 40901 ft | 470 kts | 104° |
| 2026-05-07 17:57 | 6.85462 | 81.10117 | 40897 ft | 471 kts | 104° |
| 2026-05-07 17:58 | 6.83860 | 81.16506 | 40889 ft | 471 kts | 104° |
| 2026-05-07 17:58 | 6.82257 | 81.22894 | 40877 ft | 471 kts | 104° |
| 2026-05-07 17:59 | 6.80653 | 81.29282 | 40874 ft | 471 kts | 104° |
| 2026-05-07 17:59 | 6.79057 | 81.35631 | 40870 ft | 471 kts | 104° |
| 2026-05-07 18:00 | 6.77452 | 81.42017 | 40868 ft | 470 kts | 104° |
| 2026-05-07 18:00 | 6.75849 | 81.48387 | 40863 ft | 470 kts | 104° |
| 2026-05-07 18:01 | 6.74245 | 81.54759 | 40863 ft | 470 kts | 104° |
| 2026-05-07 18:01 | 6.72641 | 81.61132 | 40857 ft | 469 kts | 104° |
| 2026-05-07 18:02 | 6.70241 | 81.70652 | 40845 ft | 467 kts | 104° |
| 2026-05-07 18:03 | 6.68646 | 81.76977 | 40845 ft | 466 kts | 104° |
| 2026-05-07 18:03 | 6.67049 | 81.83305 | 40844 ft | 467 kts | 104° |
| 2026-05-07 18:04 | 6.65450 | 81.89638 | 40848 ft | 467 kts | 104° |
| 2026-05-07 18:04 | 6.63851 | 81.95967 | 40853 ft | 467 kts | 104° |
| 2026-05-07 18:05 | 6.62253 | 82.02290 | 40849 ft | 466 kts | 104° |
| 2026-05-07 18:05 | 6.60665 | 82.08599 | 40850 ft | 465 kts | 104° |
| 2026-05-07 18:06 | 6.59070 | 82.14916 | 40850 ft | 466 kts | 104° |
| 2026-05-07 18:06 | 6.57486 | 82.21193 | 40852 ft | 466 kts | 104° |
| 2026-05-07 18:07 | 6.55894 | 82.27499 | 40849 ft | 465 kts | 104° |
| 2026-05-07 18:07 | 6.54297 | 82.33820 | 40852 ft | 467 kts | 104° |
| 2026-05-07 18:08 | 6.52698 | 82.40145 | 40855 ft | 467 kts | 104° |
| 2026-05-07 18:08 | 6.51098 | 82.46469 | 40852 ft | 466 kts | 104° |
| 2026-05-07 18:09 | 6.49499 | 82.52791 | 40849 ft | 466 kts | 104° |
| 2026-05-07 18:09 | 6.47897 | 82.59117 | 40849 ft | 467 kts | 104° |
| 2026-05-07 18:10 | 6.46295 | 82.65439 | 40854 ft | 467 kts | 104° |
| 2026-05-07 18:10 | 6.44692 | 82.71761 | 40849 ft | 467 kts | 104° |
| 2026-05-07 18:11 | 6.43089 | 82.78084 | 40849 ft | 467 kts | 104° |
| 2026-05-07 18:11 | 6.41484 | 82.84406 | 40848 ft | 467 kts | 104° |
| 2026-05-07 18:12 | 6.39876 | 82.90740 | 40852 ft | 468 kts | 104° |
| 2026-05-07 18:12 | 6.38275 | 82.97041 | 40855 ft | 469 kts | 104° |
| 2026-05-07 18:13 | 6.36664 | 83.03383 | 40852 ft | 468 kts | 104° |
| 2026-05-07 18:13 | 6.35051 | 83.09724 | 40850 ft | 468 kts | 104° |
| 2026-05-07 18:14 | 6.33441 | 83.16052 | 40849 ft | 467 kts | 104° |
| 2026-05-07 18:14 | 6.31831 | 83.22373 | 40842 ft | 466 kts | 104° |
| 2026-05-07 18:15 | 6.30226 | 83.28675 | 40850 ft | 465 kts | 104° |
| 2026-05-07 18:15 | 6.28621 | 83.34972 | 40846 ft | 465 kts | 104° |
| 2026-05-07 18:16 | 6.27016 | 83.41267 | 40846 ft | 465 kts | 104° |
| 2026-05-07 18:16 | 6.25409 | 83.47563 | 40846 ft | 465 kts | 104° |
| 2026-05-07 18:17 | 6.23804 | 83.53851 | 40849 ft | 464 kts | 104° |
| 2026-05-07 18:17 | 6.22469 | 83.59078 | 40849 ft | 465 kts | 104° |
| 2026-05-07 18:18 | 6.20863 | 83.65365 | 40849 ft | 464 kts | 104° |
| 2026-05-07 18:18 | 6.19255 | 83.71654 | 40849 ft | 465 kts | 104° |
| 2026-05-07 18:19 | 6.17646 | 83.77945 | 40844 ft | 465 kts | 104° |
| 2026-05-07 18:19 | 6.16035 | 83.84238 | 40846 ft | 464 kts | 104° |
| 2026-05-07 18:20 | 6.14426 | 83.90524 | 40848 ft | 465 kts | 104° |
| 2026-05-07 18:20 | 6.12812 | 83.96825 | 40835 ft | 466 kts | 104° |
| 2026-05-07 18:21 | 6.11194 | 84.03134 | 40831 ft | 466 kts | 104° |
| 2026-05-07 18:21 | 6.09577 | 84.09436 | 40836 ft | 466 kts | 104° |
| 2026-05-07 18:22 | 6.07957 | 84.15746 | 40835 ft | 466 kts | 104° |
| 2026-05-07 18:22 | 6.06340 | 84.22044 | 40833 ft | 465 kts | 104° |
| 2026-05-07 18:23 | 6.04721 | 84.28342 | 40834 ft | 466 kts | 104° |
| 2026-05-07 18:23 | 6.03102 | 84.34638 | 40832 ft | 466 kts | 104° |
| 2026-05-07 18:24 | 6.01482 | 84.40937 | 40836 ft | 466 kts | 104° |
| 2026-05-07 18:24 | 5.99860 | 84.47241 | 40831 ft | 466 kts | 104° |
| 2026-05-07 18:25 | 5.98238 | 84.53540 | 40831 ft | 466 kts | 104° |
| 2026-05-07 18:25 | 5.96611 | 84.59855 | 40831 ft | 467 kts | 104° |
| 2026-05-07 18:26 | 5.94985 | 84.66163 | 40832 ft | 467 kts | 104° |
| 2026-05-07 18:26 | 5.93358 | 84.72473 | 40835 ft | 467 kts | 104° |
| 2026-05-07 18:27 | 5.91730 | 84.78783 | 40841 ft | 467 kts | 104° |
| 2026-05-07 18:27 | 5.90101 | 84.85094 | 40833 ft | 467 kts | 104° |
| 2026-05-07 18:28 | 5.88472 | 84.91398 | 40830 ft | 466 kts | 104° |
| 2026-05-07 18:28 | 5.86844 | 84.97701 | 40834 ft | 466 kts | 104° |
| 2026-05-07 18:29 | 5.85227 | 85.03956 | 40835 ft | 466 kts | 104° |
| 2026-05-07 18:29 | 5.83597 | 85.10255 | 40837 ft | 466 kts | 104° |
| 2026-05-07 18:30 | 5.81966 | 85.16560 | 40830 ft | 466 kts | 104° |
| 2026-05-07 18:30 | 5.80336 | 85.22856 | 40830 ft | 465 kts | 104° |
| 2026-05-07 18:31 | 5.78709 | 85.29137 | 40833 ft | 465 kts | 104° |
| 2026-05-07 18:31 | 5.77080 | 85.35424 | 40833 ft | 465 kts | 104° |
| 2026-05-07 18:32 | 5.75452 | 85.41702 | 40831 ft | 464 kts | 104° |
| 2026-05-07 18:32 | 5.73824 | 85.47980 | 40831 ft | 465 kts | 104° |
| 2026-05-07 18:33 | 5.72194 | 85.54260 | 40834 ft | 465 kts | 104° |
| 2026-05-07 18:33 | 5.70563 | 85.60542 | 40830 ft | 465 kts | 104° |
| 2026-05-07 18:34 | 5.68932 | 85.66818 | 40834 ft | 465 kts | 104° |
| 2026-05-07 18:34 | 5.67299 | 85.73103 | 40833 ft | 465 kts | 104° |
| 2026-05-07 18:35 | 5.65666 | 85.79385 | 40831 ft | 465 kts | 104° |
| 2026-05-07 18:35 | 5.64029 | 85.85679 | 40834 ft | 466 kts | 104° |
| 2026-05-07 18:36 | 5.62393 | 85.91964 | 40834 ft | 465 kts | 104° |
| 2026-05-07 18:36 | 5.60759 | 85.98239 | 40833 ft | 464 kts | 104° |
| 2026-05-07 18:37 | 5.59124 | 86.04514 | 40833 ft | 465 kts | 104° |
| 2026-05-07 18:37 | 5.57487 | 86.10797 | 40830 ft | 466 kts | 104° |
| 2026-05-07 18:38 | 5.55845 | 86.17092 | 40833 ft | 466 kts | 104° |
| 2026-05-07 18:38 | 5.54213 | 86.23350 | 40836 ft | 467 kts | 104° |
| 2026-05-07 18:39 | 5.52566 | 86.29662 | 40837 ft | 468 kts | 104° |
| 2026-05-07 18:39 | 5.50919 | 86.35969 | 40842 ft | 467 kts | 104° |
| 2026-05-07 18:40 | 5.49272 | 86.42274 | 40835 ft | 467 kts | 104° |
| 2026-05-07 18:40 | 5.47623 | 86.48582 | 40838 ft | 468 kts | 104° |
| 2026-05-07 18:41 | 5.45970 | 86.54904 | 40836 ft | 468 kts | 104° |
| 2026-05-07 18:41 | 5.44316 | 86.61228 | 40846 ft | 468 kts | 104° |
| 2026-05-07 18:42 | 5.42664 | 86.67541 | 40836 ft | 468 kts | 104° |
| 2026-05-07 18:42 | 5.41010 | 86.73858 | 40835 ft | 468 kts | 104° |
| 2026-05-07 18:43 | 5.39353 | 86.80182 | 40836 ft | 468 kts | 104° |
| 2026-05-07 18:43 | 5.37698 | 86.86499 | 40833 ft | 468 kts | 104° |
| 2026-05-07 18:44 | 5.36043 | 86.92812 | 40833 ft | 468 kts | 104° |
| 2026-05-07 18:44 | 5.34386 | 86.99130 | 40835 ft | 468 kts | 104° |
| 2026-05-07 18:45 | 5.32728 | 87.05449 | 40833 ft | 468 kts | 105° |
| 2026-05-07 18:45 | 5.31070 | 87.11763 | 40831 ft | 468 kts | 105° |
| 2026-05-07 18:46 | 5.29411 | 87.18082 | 40831 ft | 468 kts | 104° |
| 2026-05-07 18:46 | 5.27751 | 87.24399 | 40834 ft | 468 kts | 104° |
| 2026-05-07 18:47 | 5.26089 | 87.30722 | 40835 ft | 469 kts | 104° |
| 2026-05-07 18:47 | 5.24427 | 87.37042 | 40834 ft | 469 kts | 104° |
| 2026-05-07 18:48 | 5.22763 | 87.43366 | 40833 ft | 469 kts | 105° |
| 2026-05-07 18:48 | 5.21107 | 87.49656 | 40832 ft | 469 kts | 105° |
| 2026-05-07 18:49 | 5.19432 | 87.56019 | 40834 ft | 469 kts | 104° |
| 2026-05-07 18:49 | 5.17776 | 87.62305 | 40836 ft | 469 kts | 104° |
| 2026-05-07 18:50 | 5.16109 | 87.68631 | 40835 ft | 469 kts | 104° |
| 2026-05-07 18:50 | 5.14441 | 87.74956 | 40836 ft | 470 kts | 104° |
| 2026-05-07 18:51 | 5.12771 | 87.81290 | 40833 ft | 469 kts | 104° |
| 2026-05-07 18:51 | 5.11101 | 87.87618 | 40833 ft | 469 kts | 104° |
| 2026-05-07 18:52 | 5.09435 | 87.93928 | 40832 ft | 467 kts | 104° |
| 2026-05-07 18:52 | 5.07772 | 88.00226 | 40833 ft | 467 kts | 104° |
| 2026-05-07 18:53 | 5.06031 | 88.06511 | 40835 ft | 468 kts | 105° |
| 2026-05-07 18:53 | 5.04285 | 88.12804 | 40838 ft | 469 kts | 105° |
| 2026-05-07 18:54 | 5.02544 | 88.19110 | 40843 ft | 469 kts | 105° |
| 2026-05-07 18:54 | 5.00794 | 88.25412 | 40837 ft | 469 kts | 105° |
| 2026-05-07 18:55 | 4.99049 | 88.31719 | 40839 ft | 469 kts | 105° |
| 2026-05-07 18:55 | 4.97303 | 88.38011 | 40846 ft | 468 kts | 105° |
| 2026-05-07 18:56 | 4.95562 | 88.44292 | 40840 ft | 468 kts | 105° |
| 2026-05-07 18:56 | 4.93817 | 88.50577 | 40837 ft | 468 kts | 105° |
| 2026-05-07 18:57 | 4.92068 | 88.56880 | 40837 ft | 470 kts | 105° |
| 2026-05-07 18:57 | 4.90316 | 88.63190 | 40839 ft | 470 kts | 105° |
| 2026-05-07 18:58 | 4.88565 | 88.69494 | 40836 ft | 469 kts | 105° |
| 2026-05-07 18:58 | 4.86815 | 88.75790 | 40840 ft | 468 kts | 104° |
| 2026-05-07 18:59 | 4.85068 | 88.82073 | 40836 ft | 468 kts | 105° |
| 2026-05-07 18:59 | 4.83321 | 88.88357 | 40840 ft | 468 kts | 105° |
| 2026-05-07 19:00 | 4.81571 | 88.94649 | 40835 ft | 469 kts | 105° |
| 2026-05-07 19:00 | 4.79830 | 89.00901 | 40838 ft | 469 kts | 105° |
| 2026-05-07 19:01 | 4.78076 | 89.07201 | 40836 ft | 470 kts | 105° |
| 2026-05-07 19:01 | 4.76316 | 89.13520 | 40842 ft | 471 kts | 105° |
| 2026-05-07 19:02 | 4.74555 | 89.19841 | 40842 ft | 470 kts | 105° |
| 2026-05-07 19:02 | 4.72797 | 89.26147 | 40836 ft | 469 kts | 105° |
| 2026-05-07 19:03 | 4.71043 | 89.32440 | 40838 ft | 469 kts | 105° |
| 2026-05-07 19:03 | 4.69287 | 89.38733 | 40840 ft | 469 kts | 105° |
| 2026-05-07 19:04 | 4.67528 | 89.45037 | 40842 ft | 470 kts | 105° |
| 2026-05-07 19:04 | 4.65765 | 89.51352 | 40840 ft | 470 kts | 105° |
| 2026-05-07 19:05 | 4.64289 | 89.56639 | 40845 ft | 469 kts | 105° |
| 2026-05-07 19:05 | 4.62543 | 89.62888 | 40841 ft | 468 kts | 105° |
| 2026-05-07 19:06 | 4.60788 | 89.69171 | 40844 ft | 469 kts | 105° |
| 2026-05-07 19:06 | 4.58149 | 89.78609 | 40837 ft | 469 kts | 105° |
| 2026-05-07 19:07 | 4.56390 | 89.84898 | 40837 ft | 469 kts | 105° |
| 2026-05-07 19:07 | 4.54627 | 89.91197 | 40839 ft | 470 kts | 105° |
| 2026-05-07 19:08 | 4.52864 | 89.97499 | 40838 ft | 469 kts | 105° |
| 2026-05-07 19:08 | 4.51100 | 90.03797 | 40840 ft | 469 kts | 105° |
| 2026-05-07 19:09 | 4.49337 | 90.10091 | 40842 ft | 470 kts | 105° |
| 2026-05-07 19:09 | 4.47567 | 90.16408 | 40843 ft | 471 kts | 105° |
| 2026-05-07 19:10 | 4.45797 | 90.22723 | 40841 ft | 471 kts | 105° |
| 2026-05-07 19:10 | 4.44028 | 90.29031 | 40840 ft | 470 kts | 105° |
| 2026-05-07 19:11 | 4.42273 | 90.35287 | 40840 ft | 469 kts | 105° |
| 2026-05-07 19:11 | 4.40577 | 90.41602 | 40849 ft | 469 kts | 103° |
| 2026-05-07 19:12 | 4.38964 | 90.47940 | 40840 ft | 470 kts | 103° |
| 2026-05-07 19:12 | 4.37388 | 90.54289 | 40838 ft | 469 kts | 103° |
| 2026-05-07 19:13 | 4.35798 | 90.60636 | 40842 ft | 470 kts | 103° |
| 2026-05-07 19:13 | 4.34209 | 90.66987 | 40846 ft | 469 kts | 103° |
| 2026-05-07 19:14 | 4.32625 | 90.73323 | 40843 ft | 469 kts | 103° |
| 2026-05-07 19:14 | 4.31036 | 90.79666 | 40841 ft | 469 kts | 103° |
| 2026-05-07 19:15 | 4.29452 | 90.85993 | 40839 ft | 468 kts | 103° |
| 2026-05-07 19:15 | 4.27871 | 90.92305 | 40836 ft | 467 kts | 103° |
| 2026-05-07 19:16 | 4.26289 | 90.98617 | 40841 ft | 467 kts | 103° |
| 2026-05-07 19:16 | 4.24705 | 91.04933 | 40838 ft | 468 kts | 103° |
| 2026-05-07 19:17 | 4.23117 | 91.11266 | 40841 ft | 469 kts | 103° |
| 2026-05-07 19:17 | 4.21525 | 91.17612 | 40839 ft | 469 kts | 103° |
| 2026-05-07 19:18 | 4.19947 | 91.23899 | 40839 ft | 468 kts | 103° |
| 2026-05-07 19:18 | 4.18363 | 91.30208 | 40837 ft | 467 kts | 103° |
| 2026-05-07 19:19 | 4.16776 | 91.36528 | 40839 ft | 468 kts | 103° |
| 2026-05-07 19:19 | 4.15190 | 91.42842 | 40840 ft | 468 kts | 103° |
| 2026-05-07 19:20 | 4.13601 | 91.49163 | 40840 ft | 467 kts | 103° |
| 2026-05-07 19:20 | 4.12016 | 91.55466 | 40839 ft | 466 kts | 103° |
| 2026-05-07 19:21 | 4.10436 | 91.61750 | 40839 ft | 464 kts | 103° |
| 2026-05-07 19:21 | 4.08858 | 91.68020 | 40838 ft | 464 kts | 103° |
| 2026-05-07 19:22 | 4.07280 | 91.74290 | 40842 ft | 464 kts | 103° |
| 2026-05-07 19:22 | 4.05703 | 91.80555 | 40839 ft | 464 kts | 103° |
| 2026-05-07 19:23 | 4.04125 | 91.86817 | 40840 ft | 463 kts | 103° |
| 2026-05-07 19:23 | 4.02554 | 91.93054 | 40840 ft | 461 kts | 103° |
| 2026-05-07 19:24 | 4.00983 | 91.99286 | 40841 ft | 462 kts | 103° |
| 2026-05-07 19:24 | 3.99380 | 92.05518 | 40841 ft | 462 kts | 104° |
| 2026-05-07 19:25 | 3.97762 | 92.11743 | 40840 ft | 462 kts | 103° |
| 2026-05-07 19:25 | 3.96156 | 92.17971 | 40841 ft | 462 kts | 103° |
| 2026-05-07 19:26 | 3.94542 | 92.24190 | 40842 ft | 461 kts | 103° |
| 2026-05-07 19:26 | 3.92939 | 92.30390 | 40843 ft | 459 kts | 103° |
| 2026-05-07 19:27 | 3.91347 | 92.36529 | 40841 ft | 459 kts | 103° |
| 2026-05-07 19:27 | 3.89746 | 92.42709 | 40840 ft | 458 kts | 103° |
| 2026-05-07 19:28 | 3.88147 | 92.48875 | 40842 ft | 457 kts | 103° |
| 2026-05-07 19:28 | 3.86552 | 92.55026 | 40840 ft | 457 kts | 103° |
| 2026-05-07 19:29 | 3.84954 | 92.61189 | 40838 ft | 457 kts | 103° |
| 2026-05-07 19:29 | 3.83355 | 92.67349 | 40841 ft | 458 kts | 103° |
| 2026-05-07 19:30 | 3.81752 | 92.73524 | 40840 ft | 458 kts | 103° |
| 2026-05-07 19:30 | 3.80152 | 92.79688 | 40837 ft | 456 kts | 103° |
| 2026-05-07 19:31 | 3.78556 | 92.85832 | 40833 ft | 456 kts | 103° |
| 2026-05-07 19:31 | 3.76963 | 92.91965 | 40836 ft | 455 kts | 103° |
| 2026-05-07 19:32 | 3.75372 | 92.98087 | 40836 ft | 455 kts | 103° |
| 2026-05-07 19:32 | 3.73778 | 93.04220 | 40830 ft | 455 kts | 103° |
| 2026-05-07 19:33 | 3.72183 | 93.10352 | 40830 ft | 455 kts | 103° |
| 2026-05-07 19:33 | 3.70589 | 93.16480 | 40831 ft | 455 kts | 103° |
| 2026-05-07 19:34 | 3.68991 | 93.22620 | 40829 ft | 456 kts | 103° |
| 2026-05-07 19:34 | 3.67392 | 93.28764 | 40833 ft | 456 kts | 103° |
| 2026-05-07 19:35 | 3.65793 | 93.34906 | 40834 ft | 456 kts | 103° |
| 2026-05-07 19:35 | 3.64192 | 93.41053 | 40834 ft | 456 kts | 103° |
| 2026-05-07 19:36 | 3.62600 | 93.47167 | 40834 ft | 457 kts | 103° |
| 2026-05-07 19:36 | 3.60995 | 93.53325 | 40835 ft | 457 kts | 103° |
| 2026-05-07 19:37 | 3.59382 | 93.59514 | 40836 ft | 456 kts | 103° |
| 2026-05-07 19:37 | 3.57789 | 93.65623 | 40832 ft | 457 kts | 104° |
| 2026-05-07 19:38 | 3.56184 | 93.71777 | 40830 ft | 457 kts | 104° |
| 2026-05-07 19:38 | 3.54577 | 93.77935 | 40830 ft | 458 kts | 104° |
| 2026-05-07 19:39 | 3.52966 | 93.84108 | 40833 ft | 458 kts | 104° |
| 2026-05-07 19:39 | 3.51356 | 93.90279 | 40834 ft | 459 kts | 104° |
| 2026-05-07 19:40 | 3.49743 | 93.96453 | 40834 ft | 458 kts | 104° |
| 2026-05-07 19:40 | 3.48129 | 94.02632 | 40838 ft | 459 kts | 104° |
| 2026-05-07 19:41 | 3.46514 | 94.08814 | 40838 ft | 459 kts | 104° |
| 2026-05-07 19:41 | 3.44897 | 94.15001 | 40837 ft | 460 kts | 104° |
| 2026-05-07 19:42 | 3.43276 | 94.21201 | 40838 ft | 461 kts | 104° |
| 2026-05-07 19:42 | 3.41666 | 94.27361 | 40838 ft | 460 kts | 104° |
| 2026-05-07 19:43 | 3.40045 | 94.33555 | 40847 ft | 460 kts | 104° |
| 2026-05-07 19:43 | 3.38423 | 94.39758 | 40840 ft | 461 kts | 104° |
| 2026-05-07 19:44 | 3.36802 | 94.45950 | 40843 ft | 459 kts | 104° |
| 2026-05-07 19:44 | 3.35185 | 94.52128 | 40836 ft | 459 kts | 104° |
| 2026-05-07 19:45 | 3.33570 | 94.58293 | 40834 ft | 457 kts | 104° |
| 2026-05-07 19:45 | 3.31958 | 94.64448 | 40837 ft | 457 kts | 104° |
| 2026-05-07 19:46 | 3.30347 | 94.70601 | 40834 ft | 457 kts | 104° |
| 2026-05-07 19:46 | 3.28732 | 94.76761 | 40838 ft | 457 kts | 104° |
| 2026-05-07 19:47 | 3.27140 | 94.82921 | 40836 ft | 457 kts | 100° |
| 2026-05-07 19:47 | 3.26896 | 94.89248 | 40844 ft | 458 kts | 87° |
| 2026-05-07 19:48 | 3.27306 | 94.95608 | 40843 ft | 458 kts | 86° |
| 2026-05-07 19:48 | 3.27723 | 95.01976 | 40849 ft | 459 kts | 86° |
| 2026-05-07 19:49 | 3.28131 | 95.08317 | 40849 ft | 460 kts | 86° |
| 2026-05-07 19:49 | 3.28547 | 95.14695 | 40844 ft | 460 kts | 86° |
| 2026-05-07 19:50 | 3.28959 | 95.21086 | 40846 ft | 460 kts | 86° |
| 2026-05-07 19:50 | 3.29374 | 95.27481 | 40847 ft | 461 kts | 86° |
| 2026-05-07 19:51 | 3.29787 | 95.33884 | 40848 ft | 460 kts | 86° |
| 2026-05-07 19:51 | 3.30199 | 95.40270 | 40850 ft | 460 kts | 86° |
| 2026-05-07 19:52 | 3.30611 | 95.46664 | 40847 ft | 460 kts | 86° |
| 2026-05-07 19:52 | 3.31023 | 95.53062 | 40848 ft | 461 kts | 86° |
| 2026-05-07 19:53 | 3.31435 | 95.59462 | 40842 ft | 462 kts | 86° |
| 2026-05-07 19:53 | 3.31847 | 95.65878 | 40847 ft | 462 kts | 86° |
| 2026-05-07 19:54 | 3.32260 | 95.72304 | 40847 ft | 463 kts | 86° |
| 2026-05-07 19:54 | 3.32672 | 95.78730 | 40846 ft | 462 kts | 86° |
| 2026-05-07 19:55 | 3.33083 | 95.85147 | 40846 ft | 462 kts | 87° |
| 2026-05-07 19:55 | 3.33495 | 95.91575 | 40851 ft | 463 kts | 87° |
| 2026-05-07 19:56 | 3.33906 | 95.98010 | 40849 ft | 463 kts | 87° |
| 2026-05-07 19:56 | 3.34248 | 96.03356 | 40847 ft | 463 kts | 87° |
| 2026-05-07 19:57 | 3.34724 | 96.10825 | 40848 ft | 463 kts | 87° |
| 2026-05-07 19:57 | 3.35134 | 96.17252 | 40846 ft | 462 kts | 87° |
| 2026-05-07 19:58 | 3.35476 | 96.22622 | 40845 ft | 461 kts | 87° |
| 2026-05-07 19:58 | 3.35884 | 96.29031 | 40845 ft | 461 kts | 87° |
| 2026-05-07 19:59 | 3.36290 | 96.35427 | 40843 ft | 461 kts | 87° |
| 2026-05-07 19:59 | 3.36695 | 96.41797 | 40846 ft | 462 kts | 87° |
| 2026-05-07 20:00 | 3.37102 | 96.48220 | 40845 ft | 463 kts | 87° |
| 2026-05-07 20:00 | 3.37509 | 96.54644 | 40844 ft | 463 kts | 87° |
| 2026-05-07 20:01 | 3.37917 | 96.61079 | 40844 ft | 464 kts | 87° |
| 2026-05-07 20:01 | 3.38325 | 96.67528 | 40847 ft | 464 kts | 87° |
| 2026-05-07 20:02 | 3.38731 | 96.73963 | 40845 ft | 463 kts | 87° |
| 2026-05-07 20:02 | 3.39136 | 96.80385 | 40840 ft | 462 kts | 87° |
| 2026-05-07 20:03 | 3.39540 | 96.86797 | 40849 ft | 462 kts | 87° |
| 2026-05-07 20:03 | 3.39945 | 96.93227 | 40864 ft | 463 kts | 87° |
| 2026-05-07 20:04 | 3.40350 | 96.99665 | 40873 ft | 464 kts | 87° |
| 2026-05-07 20:04 | 3.40756 | 97.06126 | 40877 ft | 466 kts | 87° |
| 2026-05-07 20:05 | 3.41162 | 97.12596 | 40889 ft | 465 kts | 87° |
| 2026-05-07 20:05 | 3.41565 | 97.19020 | 40898 ft | 465 kts | 87° |
| 2026-05-07 20:06 | 3.41970 | 97.25492 | 40914 ft | 466 kts | 87° |
| 2026-05-07 20:06 | 3.42375 | 97.31974 | 40917 ft | 466 kts | 87° |
| 2026-05-07 20:07 | 3.42780 | 97.38443 | 40924 ft | 466 kts | 87° |
| 2026-05-07 20:07 | 3.43184 | 97.44916 | 40931 ft | 466 kts | 87° |
| 2026-05-07 20:08 | 3.43588 | 97.51390 | 40939 ft | 466 kts | 87° |
| 2026-05-07 20:08 | 3.43985 | 97.57866 | 40941 ft | 466 kts | 89° |
| 2026-05-07 20:09 | 3.43800 | 97.61097 | 40952 ft | 465 kts | 100° |
| 2026-05-07 20:09 | 3.43043 | 97.64243 | 40945 ft | 465 kts | 107° |
| 2026-05-07 20:10 | 3.40165 | 97.73513 | 40935 ft | 464 kts | 107° |
| 2026-05-07 20:10 | 3.38243 | 97.79692 | 40928 ft | 465 kts | 107° |
| 2026-05-07 20:11 | 3.36318 | 97.85875 | 40915 ft | 466 kts | 107° |
| 2026-05-07 20:11 | 3.34394 | 97.92050 | 40912 ft | 465 kts | 107° |
| 2026-05-07 20:12 | 3.32469 | 97.98229 | 40900 ft | 465 kts | 107° |
| 2026-05-07 20:12 | 3.30541 | 98.04413 | 40897 ft | 466 kts | 107° |
| 2026-05-07 20:13 | 3.28625 | 98.10563 | 40897 ft | 466 kts | 107° |
| 2026-05-07 20:13 | 3.26691 | 98.16764 | 40895 ft | 466 kts | 107° |
| 2026-05-07 20:14 | 3.24763 | 98.22946 | 40893 ft | 465 kts | 107° |
| 2026-05-07 20:14 | 3.22838 | 98.29119 | 40891 ft | 464 kts | 107° |
| 2026-05-07 20:15 | 3.20914 | 98.35287 | 40896 ft | 464 kts | 107° |
| 2026-05-07 20:15 | 3.18991 | 98.41447 | 40895 ft | 464 kts | 107° |
| 2026-05-07 20:16 | 3.17067 | 98.47611 | 40889 ft | 464 kts | 107° |
| 2026-05-07 20:16 | 3.15143 | 98.53774 | 40890 ft | 465 kts | 107° |
| 2026-05-07 20:17 | 3.13216 | 98.59945 | 40890 ft | 465 kts | 107° |
| 2026-05-07 20:17 | 3.11284 | 98.66131 | 40889 ft | 466 kts | 107° |
| 2026-05-07 20:18 | 3.09348 | 98.72325 | 40880 ft | 466 kts | 107° |
| 2026-05-07 20:18 | 3.07414 | 98.78516 | 40879 ft | 467 kts | 107° |
| 2026-05-07 20:19 | 3.05476 | 98.84716 | 40875 ft | 466 kts | 107° |
| 2026-05-07 20:19 | 3.03553 | 98.90865 | 40870 ft | 466 kts | 107° |
| 2026-05-07 20:20 | 3.01603 | 98.97102 | 40866 ft | 466 kts | 107° |
| 2026-05-07 20:20 | 2.99682 | 99.03245 | 40868 ft | 465 kts | 107° |
| 2026-05-07 20:21 | 2.97749 | 99.09422 | 40858 ft | 466 kts | 107° |
| 2026-05-07 20:21 | 2.95815 | 99.15604 | 40859 ft | 466 kts | 107° |
| 2026-05-07 20:22 | 2.93877 | 99.21798 | 40857 ft | 466 kts | 107° |
| 2026-05-07 20:22 | 2.91937 | 99.27995 | 40856 ft | 467 kts | 107° |
| 2026-05-07 20:23 | 2.89982 | 99.34200 | 40853 ft | 468 kts | 107° |
| 2026-05-07 20:23 | 2.88026 | 99.40397 | 40849 ft | 467 kts | 107° |
| 2026-05-07 20:24 | 2.86073 | 99.46593 | 40847 ft | 467 kts | 107° |
| 2026-05-07 20:24 | 2.84115 | 99.52797 | 40845 ft | 468 kts | 107° |
| 2026-05-07 20:25 | 2.82153 | 99.59015 | 40839 ft | 469 kts | 107° |
| 2026-05-07 20:25 | 2.80189 | 99.65237 | 40842 ft | 469 kts | 107° |
| 2026-05-07 20:26 | 2.78226 | 99.71455 | 40839 ft | 469 kts | 107° |
| 2026-05-07 20:26 | 2.76266 | 99.77664 | 40835 ft | 468 kts | 107° |
| 2026-05-07 20:27 | 2.74305 | 99.83873 | 40833 ft | 468 kts | 107° |
| 2026-05-07 20:27 | 2.72344 | 99.90081 | 40830 ft | 468 kts | 107° |
| 2026-05-07 20:28 | 2.70386 | 99.96304 | 40831 ft | 469 kts | 107° |
| 2026-05-07 20:28 | 2.68463 | 100.02536 | 40827 ft | 469 kts | 107° |
| 2026-05-07 20:29 | 2.66519 | 100.08765 | 40825 ft | 469 kts | 107° |
| 2026-05-07 20:29 | 2.64587 | 100.14993 | 40822 ft | 470 kts | 107° |
| 2026-05-07 20:30 | 2.62646 | 100.21230 | 40820 ft | 469 kts | 107° |
| 2026-05-07 20:30 | 2.60708 | 100.27463 | 40822 ft | 469 kts | 107° |
| 2026-05-07 20:31 | 2.58768 | 100.33699 | 40819 ft | 470 kts | 107° |
| 2026-05-07 20:31 | 2.56826 | 100.39941 | 40818 ft | 470 kts | 107° |
| 2026-05-07 20:32 | 2.54886 | 100.46174 | 40819 ft | 470 kts | 107° |
| 2026-05-07 20:32 | 2.52957 | 100.52371 | 40816 ft | 469 kts | 107° |
| 2026-05-07 20:33 | 2.51008 | 100.58634 | 40816 ft | 469 kts | 107° |
| 2026-05-07 20:33 | 2.49067 | 100.64868 | 40814 ft | 470 kts | 107° |
| 2026-05-07 20:34 | 2.47134 | 100.71079 | 40819 ft | 471 kts | 107° |
| 2026-05-07 20:34 | 2.45194 | 100.77346 | 40819 ft | 472 kts | 107° |
| 2026-05-07 20:35 | 2.43251 | 100.83605 | 40818 ft | 472 kts | 107° |
| 2026-05-07 20:35 | 2.41305 | 100.89878 | 40817 ft | 472 kts | 107° |
| 2026-05-07 20:36 | 2.39360 | 100.96148 | 40816 ft | 472 kts | 107° |
| 2026-05-07 20:36 | 2.37411 | 101.02426 | 40816 ft | 473 kts | 107° |
| 2026-05-07 20:37 | 2.35464 | 101.08698 | 40815 ft | 472 kts | 107° |
| 2026-05-07 20:37 | 2.33516 | 101.14974 | 40818 ft | 473 kts | 107° |
| 2026-05-07 20:38 | 2.31567 | 101.21251 | 40817 ft | 472 kts | 107° |
| 2026-05-07 20:38 | 2.29623 | 101.27510 | 40815 ft | 471 kts | 107° |
| 2026-05-07 20:39 | 2.27679 | 101.33767 | 40826 ft | 471 kts | 107° |
| 2026-05-07 20:39 | 2.25736 | 101.40023 | 40829 ft | 471 kts | 107° |
| 2026-05-07 20:40 | 2.23790 | 101.46284 | 40827 ft | 471 kts | 107° |
| 2026-05-07 20:40 | 2.21846 | 101.52541 | 40825 ft | 472 kts | 107° |
| 2026-05-07 20:41 | 2.20466 | 101.58941 | 40837 ft | 472 kts | 95° |
| 2026-05-07 20:41 | 2.19963 | 101.65501 | 40838 ft | 474 kts | 94° |
| 2026-05-07 20:42 | 2.19461 | 101.72077 | 40834 ft | 475 kts | 95° |
| 2026-05-07 20:42 | 2.18951 | 101.78659 | 40831 ft | 475 kts | 94° |
| 2026-05-07 20:43 | 2.18448 | 101.85242 | 40829 ft | 475 kts | 95° |
| 2026-05-07 20:43 | 2.17939 | 101.91828 | 40831 ft | 476 kts | 95° |
| 2026-05-07 20:44 | 2.17432 | 101.98427 | 40834 ft | 476 kts | 95° |
| 2026-05-07 20:44 | 2.16919 | 102.05034 | 40847 ft | 476 kts | 96° |
| 2026-05-07 20:44 | 2.16302 | 102.08275 | 40845 ft | 476 kts | 108° |
| 2026-05-07 20:45 | 2.15062 | 102.11341 | 40849 ft | 476 kts | 118° |
| 2026-05-07 20:45 | 2.11991 | 102.17203 | 40825 ft | 476 kts | 118° |
| 2026-05-07 20:46 | 2.08893 | 102.23040 | 40529 ft | 472 kts | 118° |
| 2026-05-07 20:46 | 2.07880 | 102.24959 | 40100 ft | 471 kts | 118° |
| 2026-05-07 20:46 | 2.06357 | 102.27852 | 39489 ft | 470 kts | 118° |
| 2026-05-07 20:46 | 2.04834 | 102.30739 | 38862 ft | 469 kts | 118° |
| 2026-05-07 20:47 | 2.02817 | 102.34549 | 37961 ft | 468 kts | 118° |
| 2026-05-07 20:47 | 2.01300 | 102.37419 | 37309 ft | 466 kts | 118° |
| 2026-05-07 20:47 | 2.00279 | 102.39355 | 36858 ft | 466 kts | 118° |
| 2026-05-07 20:47 | 1.98768 | 102.42216 | 36232 ft | 464 kts | 118° |
| 2026-05-07 20:48 | 1.97267 | 102.45053 | 35616 ft | 461 kts | 118° |
| 2026-05-07 20:48 | 1.95756 | 102.47874 | 34990 ft | 458 kts | 118° |
| 2026-05-07 20:48 | 1.94256 | 102.50663 | 34368 ft | 456 kts | 117° |
| 2026-05-07 20:48 | 1.92784 | 102.53416 | 33748 ft | 453 kts | 117° |
| 2026-05-07 20:49 | 1.91291 | 102.56218 | 33107 ft | 449 kts | 117° |
| 2026-05-07 20:49 | 1.89827 | 102.58958 | 32506 ft | 444 kts | 117° |
| 2026-05-07 20:49 | 1.88397 | 102.61626 | 31928 ft | 440 kts | 117° |
| 2026-05-07 20:49 | 1.86962 | 102.64309 | 31345 ft | 435 kts | 117° |
| 2026-05-07 20:50 | 1.85543 | 102.66965 | 30768 ft | 431 kts | 117° |
| 2026-05-07 20:50 | 1.84137 | 102.69596 | 30201 ft | 427 kts | 117° |
| 2026-05-07 20:50 | 1.82742 | 102.72203 | 29602 ft | 423 kts | 117° |
| 2026-05-07 20:50 | 1.81365 | 102.74776 | 29046 ft | 417 kts | 117° |
| 2026-05-07 20:51 | 1.80009 | 102.77312 | 28499 ft | 411 kts | 117° |
| 2026-05-07 20:51 | 1.78672 | 102.79812 | 27967 ft | 405 kts | 117° |
| 2026-05-07 20:51 | 1.77352 | 102.82280 | 27438 ft | 399 kts | 117° |
| 2026-05-07 20:51 | 1.76054 | 102.84706 | 26922 ft | 394 kts | 117° |
| 2026-05-07 20:52 | 1.74769 | 102.87109 | 26402 ft | 389 kts | 117° |
| 2026-05-07 20:52 | 1.73502 | 102.89477 | 25909 ft | 384 kts | 117° |
| 2026-05-07 20:52 | 1.72255 | 102.91814 | 25409 ft | 380 kts | 117° |
| 2026-05-07 20:52 | 1.71017 | 102.94141 | 24932 ft | 378 kts | 117° |
| 2026-05-07 20:53 | 1.69785 | 102.96454 | 24428 ft | 377 kts | 117° |
| 2026-05-07 20:53 | 1.68557 | 102.98755 | 23951 ft | 373 kts | 117° |
| 2026-05-07 20:53 | 1.67345 | 103.01028 | 23477 ft | 368 kts | 117° |
| 2026-05-07 20:53 | 1.66150 | 103.03272 | 22952 ft | 362 kts | 117° |
| 2026-05-07 20:54 | 1.64973 | 103.05481 | 22474 ft | 359 kts | 117° |
| 2026-05-07 20:54 | 1.63800 | 103.07681 | 22028 ft | 359 kts | 117° |
| 2026-05-07 20:54 | 1.62636 | 103.09863 | 21738 ft | 349 kts | 117° |
| 2026-05-07 20:54 | 1.61523 | 103.11950 | 21569 ft | 334 kts | 117° |
| 2026-05-07 20:55 | 1.60430 | 103.14000 | 21170 ft | 335 kts | 117° |
| 2026-05-07 20:55 | 1.59330 | 103.16061 | 20786 ft | 336 kts | 117° |
| 2026-05-07 20:55 | 1.58233 | 103.18115 | 20402 ft | 333 kts | 117° |
| 2026-05-07 20:55 | 1.57152 | 103.20139 | 20023 ft | 327 kts | 117° |
| 2026-05-07 20:56 | 1.56084 | 103.22141 | 19664 ft | 327 kts | 117° |
| 2026-05-07 20:56 | 1.55010 | 103.24154 | 19277 ft | 329 kts | 117° |
| 2026-05-07 20:56 | 1.53937 | 103.26163 | 18894 ft | 325 kts | 117° |
| 2026-05-07 20:56 | 1.52881 | 103.28139 | 18528 ft | 321 kts | 117° |
| 2026-05-07 20:57 | 1.51830 | 103.30109 | 18173 ft | 322 kts | 117° |
| 2026-05-07 20:57 | 1.50773 | 103.32089 | 17773 ft | 322 kts | 117° |
| 2026-05-07 20:57 | 1.49912 | 103.33703 | 17478 ft | 321 kts | 117° |
| 2026-05-07 20:57 | 1.48864 | 103.35665 | 17102 ft | 320 kts | 117° |
| 2026-05-07 20:58 | 1.47829 | 103.37604 | 16739 ft | 314 kts | 117° |
| 2026-05-07 20:58 | 1.46806 | 103.39519 | 16390 ft | 313 kts | 116° |
| 2026-05-07 20:58 | 1.46093 | 103.41555 | 16037 ft | 313 kts | 97° |
| 2026-05-07 20:58 | 1.46139 | 103.43732 | 15438 ft | 314 kts | 82° |
| 2026-05-07 20:59 | 1.46435 | 103.45895 | 15094 ft | 308 kts | 82° |
| 2026-05-07 20:59 | 1.46734 | 103.48019 | 14749 ft | 311 kts | 82° |
| 2026-05-07 20:59 | 1.47038 | 103.50160 | 14336 ft | 310 kts | 82° |
| 2026-05-07 20:59 | 1.47337 | 103.52286 | 13904 ft | 308 kts | 82° |
| 2026-05-07 21:00 | 1.47632 | 103.54399 | 13474 ft | 306 kts | 82° |
| 2026-05-07 21:00 | 1.47926 | 103.56498 | 13024 ft | 304 kts | 82° |
| 2026-05-07 21:00 | 1.48164 | 103.58198 | 12690 ft | 303 kts | 82° |
| 2026-05-07 21:00 | 1.48422 | 103.60036 | 12319 ft | 302 kts | 82° |
| 2026-05-07 21:01 | 1.48716 | 103.62135 | 11903 ft | 301 kts | 82° |
| 2026-05-07 21:01 | 1.49005 | 103.64200 | 11492 ft | 299 kts | 82° |
| 2026-05-07 21:01 | 1.49287 | 103.66210 | 11082 ft | 281 kts | 82° |
| 2026-05-07 21:01 | 1.49552 | 103.68106 | 10731 ft | 282 kts | 82° |
| 2026-05-07 21:02 | 1.49830 | 103.70093 | 10335 ft | 288 kts | 82° |
| 2026-05-07 21:02 | 1.50024 | 103.72065 | 9949 ft | 282 kts | 89° |
| 2026-05-07 21:02 | 1.50159 | 103.73998 | 9576 ft | 276 kts | 84° |
| 2026-05-07 21:02 | 1.50357 | 103.75844 | 9198 ft | 260 kts | 85° |
| 2026-05-07 21:03 | 1.50513 | 103.77640 | 8875 ft | 264 kts | 86° |
| 2026-05-07 21:03 | 1.50648 | 103.79464 | 8513 ft | 260 kts | 86° |
| 2026-05-07 21:03 | 1.50785 | 103.81249 | 8172 ft | 256 kts | 86° |
| 2026-05-07 21:03 | 1.51075 | 103.82994 | 7799 ft | 256 kts | 67° |
| 2026-05-07 21:04 | 1.52020 | 103.84485 | 7471 ft | 254 kts | 56° |
| 2026-05-07 21:04 | 1.52971 | 103.85968 | 7158 ft | 253 kts | 57° |
| 2026-05-07 21:04 | 1.53917 | 103.87449 | 6818 ft | 252 kts | 57° |
| 2026-05-07 21:04 | 1.54870 | 103.88912 | 6470 ft | 251 kts | 57° |
| 2026-05-07 21:05 | 1.55821 | 103.90366 | 6137 ft | 248 kts | 57° |
| 2026-05-07 21:05 | 1.56755 | 103.91798 | 5801 ft | 244 kts | 57° |
| 2026-05-07 21:05 | 1.57660 | 103.93196 | 5468 ft | 241 kts | 57° |
| 2026-05-07 21:05 | 1.58573 | 103.94612 | 5163 ft | 238 kts | 57° |
| 2026-05-07 21:06 | 1.59456 | 103.95978 | 4857 ft | 235 kts | 57° |
| 2026-05-07 21:06 | 1.60347 | 103.97356 | 4631 ft | 229 kts | 57° |
| 2026-05-07 21:06 | 1.61188 | 103.98670 | 4300 ft | 229 kts | 59° |
| 2026-05-07 21:06 | 1.61529 | 104.00195 | 3852 ft | 230 kts | 100° |
| 2026-05-07 21:07 | 1.60783 | 104.01545 | 3606 ft | 223 kts | 141° |
| 2026-05-07 21:07 | 1.59404 | 104.02133 | 3424 ft | 213 kts | 168° |
| 2026-05-07 21:07 | 1.57972 | 104.02202 | 3319 ft | 200 kts | 182° |
| 2026-05-07 21:07 | 1.56622 | 104.02221 | 3197 ft | 189 kts | 175° |
| 2026-05-07 21:08 | 1.55368 | 104.02453 | 3081 ft | 178 kts | 168° |
| 2026-05-07 21:08 | 1.54197 | 104.02736 | 2966 ft | 168 kts | 167° |
| 2026-05-07 21:08 | 1.53083 | 104.02994 | 2846 ft | 160 kts | 168° |
| 2026-05-07 21:08 | 1.52019 | 104.03230 | 2749 ft | 157 kts | 168° |
| 2026-05-07 21:09 | 1.50895 | 104.03479 | 2711 ft | 170 kts | 168° |
| 2026-05-07 21:09 | 1.49722 | 104.03732 | 2759 ft | 173 kts | 170° |
| 2026-05-07 21:09 | 1.48570 | 104.03542 | 2734 ft | 173 kts | 205° |
| 2026-05-07 21:09 | 1.47481 | 104.03044 | 2880 ft | 170 kts | 201° |
| 2026-05-07 21:10 | 1.46419 | 104.02622 | 2988 ft | 161 kts | 202° |
| 2026-05-07 21:10 | 1.45392 | 104.02188 | 3027 ft | 159 kts | 203° |
| 2026-05-07 21:10 | 1.44451 | 104.01771 | 2764 ft | 143 kts | 203° |
| 2026-05-07 21:10 | 1.43501 | 104.01368 | 2378 ft | 152 kts | 202° |
| 2026-05-07 21:11 | 1.42519 | 104.00960 | 1874 ft | 153 kts | 201° |
| 2026-05-07 21:11 | 1.41537 | 104.00564 | 1425 ft | 151 kts | 202° |
| 2026-05-07 21:11 | 1.39601 | 103.99724 | 643 ft | 153 kts | 203° |
| 2026-05-07 21:12 | 1.38632 | 103.99319 | 310 ft | 152 kts | 203° |
| 2026-05-07 21:12 | 1.37654 | 103.98907 | 118 ft | 152 kts | 203° |
| 2026-05-07 21:12 | 1.36681 | 103.98497 | 58 ft | 149 kts | 203° |
| 2026-05-07 21:12 | 1.36044 | 103.98233 | 37 ft | 117 kts | 203° |
| 2026-05-07 21:13 | 1.35496 | 103.97999 | 36 ft | 50 kts | 203° |
| 2026-05-07 21:13 | 1.35211 | 103.97879 | 36 ft | 38 kts | 202° |
| 2026-05-07 21:13 | 1.35064 | 103.97822 | 36 ft | 13 kts | 189° |
| 2026-05-07 21:13 | 1.35002 | 103.97855 | 36 ft | 0 kts | 135° |
| 2026-05-07 21:14 | 1.34995 | 103.97864 | 36 ft | 3 kts | 130° |
| 2026-05-07 21:14 | 1.34980 | 103.97890 | 36 ft | 6 kts | 120° |
| 2026-05-07 21:14 | 1.34958 | 103.97935 | 36 ft | 9 kts | 114° |
| 2026-05-07 21:14 | 1.34935 | 103.97991 | 36 ft | 10 kts | 104° |
| 2026-05-07 21:15 | 1.34952 | 103.98057 | 36 ft | 10 kts | 54° |
| 2026-05-07 21:15 | 1.35018 | 103.98091 | 36 ft | 12 kts | 22° |
| 2026-05-07 21:15 | 1.35101 | 103.98125 | 36 ft | 14 kts | 22° |
| 2026-05-07 21:15 | 1.35198 | 103.98165 | 36 ft | 16 kts | 22° |
| 2026-05-07 21:16 | 1.35301 | 103.98207 | 36 ft | 12 kts | 22° |
| 2026-05-07 21:16 | 1.35385 | 103.98244 | 36 ft | 14 kts | 24° |
| 2026-05-07 21:16 | 1.35466 | 103.98280 | 36 ft | 13 kts | 24° |
| 2026-05-07 21:16 | 1.35558 | 103.98320 | 36 ft | 15 kts | 23° |
| 2026-05-07 21:17 | 1.35657 | 103.98362 | 36 ft | 16 kts | 23° |
| 2026-05-07 21:17 | 1.35747 | 103.98400 | 36 ft | 8 kts | 22° |
| 2026-05-07 21:17 | 1.35808 | 103.98425 | 36 ft | 11 kts | 22° |
| 2026-05-07 21:17 | 1.35880 | 103.98455 | 36 ft | 12 kts | 22° |
| 2026-05-07 21:18 | 1.35951 | 103.98484 | 36 ft | 2 kts | 22° |
| 2026-05-07 21:18 | 1.35976 | 103.98494 | 36 ft | 5 kts | 22° |
| 2026-05-07 21:18 | 1.36020 | 103.98512 | 36 ft | 8 kts | 22° |
| 2026-05-07 21:18 | 1.36070 | 103.98533 | 36 ft | 1 kts | 25° |
| 2026-05-07 21:19 | 1.36073 | 103.98538 | 36 ft | 0 kts | 46° |
| 2026-05-07 21:19 | 1.36074 | 103.98542 | 36 ft | 0 kts | 65° |
| 2026-05-07 21:19 | 1.36073 | 103.98546 | 36 ft | 1 kts | 82° |
| 2026-05-07 21:19 | 1.36067 | 103.98578 | 36 ft | 11 kts | 97° |
| 2026-05-07 21:20 | 1.36065 | 103.98652 | 36 ft | 5 kts | 87° |
| 2026-05-07 21:20 | 1.36056 | 103.98693 | 36 ft | 7 kts | 110° |
| 2026-05-07 21:20 | 1.36044 | 103.98722 | 36 ft | 2 kts | 111° |
| 2026-05-07 21:20 | 1.36044 | 103.98723 | 36 ft | 0 kts | 111° |